Wetterdaten: Dienstag, 22.07.2014
Datum Zeit Temp. Aussen +5cm Feuchte Auss Luftdruck Regen Sonnenschein Regendauer UV Solar Windben
22.07.2014 00:00 18,9 C 17,8 C 99 % 1014,7 hPa 0,0 l/m 0 min 0 min 0,0 UV-I 0 W/m 12,6 km/h (3 Bft)
22.07.2014 00:02 18,9 C 17,8 C 99 % 1014,8 hPa 0,0 l/m 0 min 0 min 0,0 UV-I 0 W/m 8,4 km/h (2 Bft)
22.07.2014 00:06 18,9 C 17,8 C 99 % 1014,7 hPa 0,0 l/m 0 min 0 min 0,0 UV-I 0 W/m 12,6 km/h (3 Bft)
22.07.2014 00:08 18,9 C 17,8 C 99 % 1014,7 hPa 0,0 l/m 0 min 0 min 0,0 UV-I 0 W/m 8,4 km/h (2 Bft)
22.07.2014 00:10 18,9 C 17,8 C 99 % 1014,7 hPa 0,0 l/m 0 min 0 min 0,0 UV-I 0 W/m 8,4 km/h (2 Bft)
22.07.2014 00:12 18,9 C 17,8 C 99 % 1014,7 hPa 0,0 l/m 0 min 0 min 0,0 UV-I 0 W/m 10,5 km/h (2 Bft)
22.07.2014 00:14 18,9 C 17,8 C 99 % 1014,7 hPa 0,0 l/m 0 min 0 min 0,0 UV-I 0 W/m 10,5 km/h (2 Bft)
22.07.2014 00:16 18,9 C 17,8 C 99 % 1014,7 hPa 0,0 l/m 0 min 0 min 0,0 UV-I 0 W/m 14,6 km/h (3 Bft)
22.07.2014 00:18 18,9 C 17,8 C 99 % 1014,7 hPa 0,0 l/m 0 min 0 min 0,0 UV-I 0 W/m 10,5 km/h (2 Bft)
22.07.2014 00:20 18,9 C 17,8 C 99 % 1014,7 hPa 0,0 l/m 0 min 0 min 0,0 UV-I 0 W/m 8,4 km/h (2 Bft)
22.07.2014 00:22 18,9 C 17,8 C 99 % 1014,7 hPa 0,0 l/m 0 min 0 min 0,0 UV-I 0 W/m 6,3 km/h (2 Bft)
22.07.2014 00:24 18,9 C 17,8 C 99 % 1014,6 hPa 0,0 l/m 0 min 0 min 0,0 UV-I 0 W/m 14,6 km/h (3 Bft)
22.07.2014 00:26 18,9 C 17,8 C 99 % 1014,7 hPa 0,0 l/m 0 min 0 min 0,0 UV-I 0 W/m 18,8 km/h (3 Bft)
22.07.2014 00:28 18,9 C 17,8 C 99 % 1014,7 hPa 0,0 l/m 0 min 0 min 0,0 UV-I 0 W/m 10,5 km/h (2 Bft)
22.07.2014 00:30 18,9 C 17,8 C 99 % 1014,6 hPa 0,0 l/m 0 min 0 min 0,0 UV-I 0 W/m 16,7 km/h (3 Bft)
22.07.2014 00:32 18,9 C 17,8 C 99 % 1014,7 hPa 0,0 l/m 0 min 0 min 0,0 UV-I 0 W/m 12,6 km/h (3 Bft)
22.07.2014 00:34 18,9 C 17,8 C 99 % 1014,7 hPa 0,0 l/m 0 min 0 min 0,0 UV-I 0 W/m 12,6 km/h (3 Bft)
22.07.2014 00:36 18,9 C 17,8 C 99 % 1014,7 hPa 0,0 l/m 0 min 0 min 0,0 UV-I 0 W/m 10,5 km/h (2 Bft)
22.07.2014 00:38 18,9 C 17,8 C 99 % 1014,7 hPa 0,0 l/m 0 min 0 min 0,0 UV-I 0 W/m 12,6 km/h (3 Bft)
22.07.2014 00:40 18,9 C 17,8 C 99 % 1014,8 hPa 0,0 l/m 0 min 0 min 0,0 UV-I 0 W/m 16,7 km/h (3 Bft)
22.07.2014 00:42 18,9 C 17,8 C 99 % 1014,8 hPa 0,0 l/m 0 min 0 min 0,0 UV-I 0 W/m 10,5 km/h (2 Bft)
22.07.2014 00:44 18,9 C 17,8 C 99 % 1014,8 hPa 0,0 l/m 0 min 0 min 0,0 UV-I 0 W/m 2,1 km/h (1 Bft)
22.07.2014 00:46 19,0 C 17,8 C 99 % 1014,8 hPa 0,0 l/m 0 min 0 min 0,0 UV-I 0 W/m 0,0 km/h (0 Bft)
22.07.2014 00:48 19,0 C 17,8 C 99 % 1014,8 hPa 0,0 l/m 0 min 0 min 0,0 UV-I 0 W/m 4,2 km/h (1 Bft)
22.07.2014 00:50 19,0 C 17,8 C 99 % 1014,9 hPa 0,0 l/m 0 min 0 min 0,0 UV-I 0 W/m 12,6 km/h (3 Bft)
22.07.2014 00:52 19,0 C 17,8 C 99 % 1014,9 hPa 0,0 l/m 0 min 0 min 0,0 UV-I 0 W/m 12,6 km/h (3 Bft)
22.07.2014 00:54 19,0 C 17,8 C 99 % 1015,0 hPa 0,0 l/m 0 min 0 min 0,0 UV-I 0 W/m 10,5 km/h (2 Bft)
22.07.2014 00:56 19,0 C 17,8 C 99 % 1015,0 hPa 0,0 l/m 0 min 0 min 0,0 UV-I 0 W/m 6,3 km/h (2 Bft)
22.07.2014 00:58 19,0 C 17,8 C 99 % 1014,9 hPa 0,0 l/m 0 min 0 min 0,0 UV-I 0 W/m 0,0 km/h (0 Bft)
22.07.2014 01:00 19,0 C 17,8 C 99 % 1014,9 hPa 0,0 l/m 0 min 0 min 0,0 UV-I 0 W/m 2,1 km/h (1 Bft)
22.07.2014 01:02 19,0 C 17,8 C 99 % 1014,9 hPa 0,0 l/m 0 min 0 min 0,0 UV-I 0 W/m 12,6 km/h (3 Bft)
22.07.2014 01:04 19,0 C 17,8 C 100 % 1015,0 hPa 0,0 l/m 0 min 0 min 0,0 UV-I 0 W/m 8,4 km/h (2 Bft)
22.07.2014 01:06 19,0 C 17,8 C 100 % 1014,9 hPa 0,0 l/m 0 min 0 min 0,0 UV-I 0 W/m 8,4 km/h (2 Bft)
22.07.2014 01:08 19,0 C 17,8 C 100 % 1014,9 hPa 0,0 l/m 0 min 0 min 0,0 UV-I 0 W/m 8,4 km/h (2 Bft)
22.07.2014 01:10 19,0 C 17,8 C 100 % 1014,9 hPa 0,0 l/m 0 min 0 min 0,0 UV-I 0 W/m 12,6 km/h (3 Bft)
22.07.2014 01:12 19,0 C 17,8 C 100 % 1015,0 hPa 0,0 l/m 0 min 0 min 0,0 UV-I 0 W/m 8,4 km/h (2 Bft)
22.07.2014 01:14 19,0 C 17,8 C 100 % 1015,0 hPa 0,0 l/m 0 min 0 min 0,0 UV-I 0 W/m 8,4 km/h (2 Bft)
22.07.2014 01:16 19,1 C 17,8 C 100 % 1014,9 hPa 0,0 l/m 0 min 0 min 0,0 UV-I 0 W/m 8,4 km/h (2 Bft)
22.07.2014 01:18 19,1 C 17,8 C 100 % 1014,9 hPa 0,0 l/m 0 min 0 min 0,0 UV-I 0 W/m 8,4 km/h (2 Bft)
22.07.2014 01:20 19,1 C 17,8 C 100 % 1014,9 hPa 0,0 l/m 0 min 0 min 0,0 UV-I 0 W/m 10,5 km/h (2 Bft)
22.07.2014 01:22 19,1 C 17,8 C 100 % 1014,9 hPa 0,0 l/m 0 min 0 min 0,0 UV-I 0 W/m 6,3 km/h (2 Bft)
22.07.2014 01:24 19,0 C 17,8 C 100 % 1014,9 hPa 0,0 l/m 0 min 0 min 0,0 UV-I 0 W/m 10,5 km/h (2 Bft)
22.07.2014 01:26 19,0 C 17,8 C 100 % 1014,9 hPa 0,0 l/m 0 min 0 min 0,0 UV-I 0 W/m 6,3 km/h (2 Bft)
22.07.2014 01:28 19,0 C 17,8 C 100 % 1015,0 hPa 0,0 l/m 0 min 0 min 0,0 UV-I 0 W/m 10,5 km/h (2 Bft)
22.07.2014 01:30 19,0 C 17,8 C 100 % 1015,0 hPa 0,0 l/m 0 min 0 min 0,0 UV-I 0 W/m 10,5 km/h (2 Bft)
22.07.2014 01:32 19,0 C 17,8 C 100 % 1015,0 hPa 0,0 l/m 0 min 0 min 0,0 UV-I 0 W/m 10,5 km/h (2 Bft)
22.07.2014 01:34 19,0 C 17,8 C 100 % 1014,9 hPa 0,0 l/m 0 min 0 min 0,0 UV-I 0 W/m 2,1 km/h (1 Bft)
22.07.2014 01:36 19,0 C 17,8 C 100 % 1014,9 hPa 0,0 l/m 0 min 0 min 0,0 UV-I 0 W/m 0,0 km/h (0 Bft)
22.07.2014 01:38 19,1 C 17,8 C 100 % 1014,9 hPa 0,0 l/m 0 min 0 min 0,0 UV-I 0 W/m 8,4 km/h (2 Bft)
22.07.2014 01:40 19,1 C 17,8 C 100 % 1014,9 hPa 0,0 l/m 0 min 0 min 0,0 UV-I 0 W/m 8,4 km/h (2 Bft)
22.07.2014 01:42 19,1 C 17,8 C 100 % 1015,0 hPa 0,0 l/m 0 min 0 min 0,0 UV-I 0 W/m 8,4 km/h (2 Bft)
22.07.2014 01:44 19,1 C 17,8 C 100 % 1014,9 hPa 0,0 l/m 0 min 0 min 0,0 UV-I 0 W/m 10,5 km/h (2 Bft)
22.07.2014 01:46 19,1 C 17,8 C 100 % 1014,9 hPa 0,0 l/m 0 min 0 min 0,0 UV-I 0 W/m 10,5 km/h (2 Bft)
22.07.2014 01:48 19,1 C 17,8 C 100 % 1014,9 hPa 0,0 l/m 0 min 0 min 0,0 UV-I 0 W/m 12,6 km/h (3 Bft)
22.07.2014 01:50 19,1 C 17,8 C 100 % 1014,9 hPa 0,0 l/m 0 min 0 min 0,0 UV-I 0 W/m 10,5 km/h (2 Bft)
22.07.2014 01:52 19,1 C 17,8 C 100 % 1014,9 hPa 0,0 l/m 0 min 0 min 0,0 UV-I 0 W/m 8,4 km/h (2 Bft)
22.07.2014 01:54 19,1 C 17,8 C 100 % 1015,0 hPa 0,0 l/m 0 min 0 min 0,0 UV-I 0 W/m 10,5 km/h (2 Bft)
22.07.2014 01:56 19,1 C 17,8 C 100 % 1014,9 hPa 0,0 l/m 0 min 0 min 0,0 UV-I 0 W/m 8,4 km/h (2 Bft)
22.07.2014 01:58 19,1 C 17,8 C 100 % 1014,9 hPa 0,0 l/m 0 min 0 min 0,0 UV-I 0 W/m 10,5 km/h (2 Bft)
22.07.2014 02:00 19,1 C 17,8 C 100 % 1014,9 hPa 0,0 l/m 0 min 0 min 0,0 UV-I 0 W/m 10,5 km/h (2 Bft)
22.07.2014 02:02 19,1 C 17,8 C 100 % 1014,8 hPa 0,0 l/m 0 min 0 min 0,0 UV-I 0 W/m 8,4 km/h (2 Bft)
22.07.2014 02:04 19,1 C 17,8 C 100 % 1014,9 hPa 0,0 l/m 0 min 0 min 0,0 UV-I 0 W/m 10,5 km/h (2 Bft)
22.07.2014 02:06 19,1 C 17,8 C 100 % 1014,9 hPa 0,0 l/m 0 min 0 min 0,0 UV-I 0 W/m 8,4 km/h (2 Bft)
22.07.2014 02:08 19,1 C 17,8 C 100 % 1014,9 hPa 0,0 l/m 0 min 0 min 0,0 UV-I 0 W/m 4,2 km/h (1 Bft)
22.07.2014 02:10 19,1 C 17,8 C 100 % 1014,9 hPa 0,0 l/m 0 min 0 min 0,0 UV-I 0 W/m 10,5 km/h (2 Bft)
22.07.2014 02:12 19,1 C 17,8 C 100 % 1014,9 hPa 0,0 l/m 0 min 0 min 0,0 UV-I 0 W/m 10,5 km/h (2 Bft)
22.07.2014 02:14 19,1 C 17,8 C 100 % 1014,9 hPa 0,0 l/m 0 min 0 min 0,0 UV-I 0 W/m 8,4 km/h (2 Bft)
22.07.2014 02:16 19,1 C 17,8 C 100 % 1014,9 hPa 0,0 l/m 0 min 0 min 0,0 UV-I 0 W/m 6,3 km/h (2 Bft)
22.07.2014 02:18 19,1 C 17,8 C 100 % 1014,9 hPa 0,0 l/m 0 min 0 min 0,0 UV-I 0 W/m 8,4 km/h (2 Bft)
22.07.2014 02:20 19,1 C 17,8 C 100 % 1014,9 hPa 0,0 l/m 0 min 0 min 0,0 UV-I 0 W/m 10,5 km/h (2 Bft)
22.07.2014 02:22 19,1 C 17,8 C 100 % 1014,9 hPa 0,0 l/m 0 min 0 min 0,0 UV-I 0 W/m 4,2 km/h (1 Bft)
22.07.2014 02:24 19,1 C 17,8 C 100 % 1015,0 hPa 0,0 l/m 0 min 0 min 0,0 UV-I 0 W/m 8,4 km/h (2 Bft)
22.07.2014 02:26 19,1 C 17,8 C 100 % 1014,9 hPa 0,0 l/m 0 min 0 min 0,0 UV-I 0 W/m 8,4 km/h (2 Bft)
22.07.2014 02:28 19,1 C 17,8 C 100 % 1015,0 hPa 0,0 l/m 0 min 0 min 0,0 UV-I 0 W/m 10,5 km/h (2 Bft)
22.07.2014 02:30 19,2 C 17,8 C 100 % 1014,9 hPa 0,0 l/m 0 min 0 min 0,0 UV-I 0 W/m 8,4 km/h (2 Bft)
22.07.2014 02:32 19,1 C 17,8 C 100 % 1015,0 hPa 0,0 l/m 0 min 0 min 0,0 UV-I 0 W/m 10,5 km/h (2 Bft)
22.07.2014 02:34 19,1 C 17,8 C 100 % 1015,0 hPa 0,0 l/m 0 min 0 min 0,0 UV-I 0 W/m 0,0 km/h (0 Bft)
22.07.2014 02:36 19,1 C 17,8 C 100 % 1015,0 hPa 0,0 l/m 0 min 0 min 0,0 UV-I 0 W/m 0,0 km/h (0 Bft)
22.07.2014 02:38 19,1 C 17,8 C 100 % 1015,0 hPa 0,0 l/m 0 min 0 min 0,0 UV-I 0 W/m 8,4 km/h (2 Bft)
22.07.2014 02:40 19,1 C 17,8 C 100 % 1014,9 hPa 0,0 l/m 0 min 0 min 0,0 UV-I 0 W/m 6,3 km/h (2 Bft)
22.07.2014 02:42 19,2 C 17,8 C 100 % 1014,9 hPa 0,0 l/m 0 min 0 min 0,0 UV-I 0 W/m 2,1 km/h (1 Bft)
22.07.2014 02:44 19,1 C 17,8 C 100 % 1014,9 hPa 0,0 l/m 0 min 0 min 0,0 UV-I 0 W/m 0,0 km/h (0 Bft)
22.07.2014 02:46 19,1 C 17,8 C 100 % 1014,9 hPa 0,0 l/m 0 min 0 min 0,0 UV-I 0 W/m 6,3 km/h (2 Bft)
22.07.2014 02:48 19,2 C 17,8 C 100 % 1014,9 hPa 0,0 l/m 0 min 0 min 0,0 UV-I 0 W/m 8,4 km/h (2 Bft)
22.07.2014 02:50 19,2 C 17,8 C 100 % 1014,9 hPa 0,0 l/m 0 min 0 min 0,0 UV-I 0 W/m 8,4 km/h (2 Bft)
22.07.2014 02:52 19,2 C 17,8 C 100 % 1014,8 hPa 0,0 l/m 0 min 0 min 0,0 UV-I 0 W/m 6,3 km/h (2 Bft)
22.07.2014 02:54 19,1 C 17,8 C 100 % 1014,8 hPa 0,0 l/m 0 min 0 min 0,0 UV-I 0 W/m 10,5 km/h (2 Bft)
22.07.2014 02:56 19,2 C 17,8 C 100 % 1014,8 hPa 0,0 l/m 0 min 0 min 0,0 UV-I 0 W/m 6,3 km/h (2 Bft)
22.07.2014 02:58 19,1 C 17,8 C 100 % 1014,8 hPa 0,0 l/m 0 min 2 min 0,0 UV-I 0 W/m 2,1 km/h (1 Bft)
22.07.2014 03:00 19,2 C 17,8 C 100 % 1014,8 hPa 0,0 l/m 0 min 2 min 0,0 UV-I 0 W/m 8,4 km/h (2 Bft)
22.07.2014 03:02 19,2 C 17,8 C 100 % 1014,7 hPa 0,0 l/m 0 min 2 min 0,0 UV-I 0 W/m 8,4 km/h (2 Bft)
22.07.2014 03:04 19,2 C 17,8 C 100 % 1014,8 hPa 0,0 l/m 0 min 2 min 0,0 UV-I 0 W/m 6,3 km/h (2 Bft)
22.07.2014 03:06 19,2 C 17,8 C 100 % 1014,8 hPa 0,0 l/m 0 min 2 min 0,0 UV-I 0 W/m 10,5 km/h (2 Bft)
22.07.2014 03:08 19,2 C 17,8 C 100 % 1014,9 hPa 0,0 l/m 0 min 2 min 0,0 UV-I 0 W/m 12,6 km/h (3 Bft)
22.07.2014 03:10 19,2 C 17,8 C 100 % 1014,8 hPa 0,0 l/m 0 min 2 min 0,0 UV-I 0 W/m 10,5 km/h (2 Bft)
22.07.2014 03:12 19,2 C 17,8 C 100 % 1014,8 hPa 0,2 l/m 0 min 2 min 0,0 UV-I 0 W/m 10,5 km/h (2 Bft)
22.07.2014 03:14 19,2 C 17,8 C 100 % 1014,8 hPa 0,0 l/m 0 min 2 min 0,0 UV-I 0 W/m 10,5 km/h (2 Bft)
22.07.2014 03:16 19,2 C 17,8 C 100 % 1014,8 hPa 0,0 l/m 0 min 2 min 0,0 UV-I 0 W/m 8,4 km/h (2 Bft)
22.07.2014 03:18 19,1 C 17,8 C 100 % 1014,7 hPa 0,0 l/m 0 min 2 min 0,0 UV-I 0 W/m 10,5 km/h (2 Bft)
22.07.2014 03:20 19,2 C 17,8 C 100 % 1014,7 hPa 0,0 l/m 0 min 2 min 0,0 UV-I 0 W/m 10,5 km/h (2 Bft)
22.07.2014 03:22 19,2 C 17,8 C 100 % 1014,7 hPa 0,0 l/m 0 min 0 min 0,0 UV-I 0 W/m 2,1 km/h (1 Bft)
22.07.2014 03:24 19,2 C 17,8 C 100 % 1014,7 hPa 0,0 l/m 0 min 0 min 0,0 UV-I 0 W/m 10,5 km/h (2 Bft)
22.07.2014 03:26 19,1 C 17,8 C 100 % 1014,8 hPa 0,2 l/m 0 min 0 min 0,0 UV-I 0 W/m 12,6 km/h (3 Bft)
22.07.2014 03:28 19,2 C 17,8 C 100 % 1014,7 hPa 0,0 l/m 0 min 0 min 0,0 UV-I 0 W/m 6,3 km/h (2 Bft)
22.07.2014 03:30 19,1 C 17,8 C 100 % 1014,7 hPa 0,0 l/m 0 min 0 min 0,0 UV-I 0 W/m 8,4 km/h (2 Bft)
22.07.2014 03:32 19,1 C 17,8 C 100 % 1014,8 hPa 0,0 l/m 0 min 0 min 0,0 UV-I 0 W/m 0,0 km/h (0 Bft)
22.07.2014 03:34 19,1 C 17,8 C 100 % 1014,8 hPa 0,0 l/m 0 min 0 min 0,0 UV-I 0 W/m 0,0 km/h (0 Bft)
22.07.2014 03:36 19,1 C 17,8 C 100 % 1014,8 hPa 0,0 l/m 0 min 0 min 0,0 UV-I 0 W/m 6,3 km/h (2 Bft)
22.07.2014 03:38 19,1 C 17,8 C 100 % 1014,8 hPa 0,0 l/m 0 min 0 min 0,0 UV-I 0 W/m 6,3 km/h (2 Bft)
22.07.2014 03:40 19,1 C 17,8 C 100 % 1014,8 hPa 0,0 l/m 0 min 0 min 0,0 UV-I 0 W/m 12,6 km/h (3 Bft)
22.07.2014 03:42 19,1 C 17,8 C 100 % 1014,8 hPa 0,0 l/m 0 min 0 min 0,0 UV-I 0 W/m 10,5 km/h (2 Bft)
22.07.2014 03:44 19,1 C 17,8 C 100 % 1014,7 hPa 0,0 l/m 0 min 0 min 0,0 UV-I 0 W/m 10,5 km/h (2 Bft)
22.07.2014 03:46 19,1 C 17,8 C 100 % 1014,7 hPa 0,0 l/m 0 min 0 min 0,0 UV-I 0 W/m 12,6 km/h (3 Bft)
22.07.2014 03:48 19,1 C 17,8 C 100 % 1014,8 hPa 0,0 l/m 0 min 0 min 0,0 UV-I 0 W/m 6,3 km/h (2 Bft)
22.07.2014 03:50 19,1 C 17,8 C 100 % 1014,8 hPa 0,0 l/m 0 min 0 min 0,0 UV-I 0 W/m 8,4 km/h (2 Bft)
22.07.2014 03:52 19,1 C 17,8 C 100 % 1014,8 hPa 0,0 l/m 0 min 0 min 0,0 UV-I 0 W/m 8,4 km/h (2 Bft)
22.07.2014 03:54 19,1 C 17,8 C 100 % 1014,9 hPa 0,0 l/m 0 min 0 min 0,0 UV-I 0 W/m 6,3 km/h (2 Bft)
22.07.2014 03:56 19,1 C 17,8 C 100 % 1014,8 hPa 0,0 l/m 0 min 0 min 0,0 UV-I 0 W/m 6,3 km/h (2 Bft)
22.07.2014 03:58 19,1 C 17,8 C 100 % 1014,9 hPa 0,0 l/m 0 min 0 min 0,0 UV-I 0 W/m 8,4 km/h (2 Bft)
22.07.2014 04:00 19,1 C 17,8 C 100 % 1014,8 hPa 0,0 l/m 0 min 0 min 0,0 UV-I 0 W/m 14,6 km/h (3 Bft)
22.07.2014 04:02 19,1 C 17,8 C 100 % 1014,8 hPa 0,0 l/m 0 min 0 min 0,0 UV-I 0 W/m 12,6 km/h (3 Bft)
22.07.2014 04:04 19,1 C 17,8 C 100 % 1014,8 hPa 0,0 l/m 0 min 0 min 0,0 UV-I 0 W/m 10,5 km/h (2 Bft)
22.07.2014 04:06 19,1 C 17,8 C 100 % 1014,8 hPa 0,0 l/m 0 min 0 min 0,0 UV-I 0 W/m 8,4 km/h (2 Bft)
22.07.2014 04:08 19,1 C 17,8 C 100 % 1014,9 hPa 0,0 l/m 0 min 0 min 0,0 UV-I 0 W/m 8,4 km/h (2 Bft)
22.07.2014 04:10 19,1 C 17,8 C 100 % 1014,9 hPa 0,0 l/m 0 min 0 min 0,0 UV-I 0 W/m 12,6 km/h (3 Bft)
22.07.2014 04:12 19,1 C 17,8 C 100 % 1015,0 hPa 0,0 l/m 0 min 0 min 0,0 UV-I 0 W/m 12,6 km/h (3 Bft)
22.07.2014 04:14 19,1 C 17,8 C 100 % 1014,9 hPa 0,0 l/m 0 min 0 min 0,0 UV-I 0 W/m 12,6 km/h (3 Bft)
22.07.2014 04:16 19,1 C 17,8 C 100 % 1014,9 hPa 0,0 l/m 0 min 0 min 0,0 UV-I 0 W/m 14,6 km/h (3 Bft)
22.07.2014 04:18 19,1 C 17,8 C 100 % 1014,9 hPa 0,0 l/m 0 min 0 min 0,0 UV-I 0 W/m 12,6 km/h (3 Bft)
22.07.2014 04:20 19,1 C 17,8 C 100 % 1014,9 hPa 0,0 l/m 0 min 0 min 0,0 UV-I 0 W/m 8,4 km/h (2 Bft)
22.07.2014 04:22 19,1 C 17,8 C 100 % 1015,0 hPa 0,0 l/m 0 min 0 min 0,0 UV-I 0 W/m 12,6 km/h (3 Bft)
22.07.2014 04:24 19,1 C 17,8 C 100 % 1015,0 hPa 0,0 l/m 0 min 0 min 0,0 UV-I 0 W/m 14,6 km/h (3 Bft)
22.07.2014 04:26 19,1 C 17,8 C 100 % 1015,0 hPa 0,0 l/m 0 min 0 min 0,0 UV-I 0 W/m 14,6 km/h (3 Bft)
22.07.2014 04:28 19,1 C 17,8 C 100 % 1015,0 hPa 0,0 l/m 0 min 0 min 0,0 UV-I 0 W/m 10,5 km/h (2 Bft)
22.07.2014 04:30 19,1 C 17,8 C 100 % 1015,0 hPa 0,0 l/m 0 min 0 min 0,0 UV-I 0 W/m 8,4 km/h (2 Bft)
22.07.2014 04:32 19,1 C 17,8 C 100 % 1015,0 hPa 0,0 l/m 0 min 0 min 0,0 UV-I 0 W/m 10,5 km/h (2 Bft)
22.07.2014 04:34 19,1 C 17,8 C 100 % 1015,0 hPa 0,0 l/m 0 min 0 min 0,0 UV-I 0 W/m 8,4 km/h (2 Bft)
22.07.2014 04:36 19,1 C 17,8 C 100 % 1015,0 hPa 0,0 l/m 0 min 0 min 0,0 UV-I 0 W/m 10,5 km/h (2 Bft)
22.07.2014 04:38 19,1 C 17,8 C 100 % 1015,1 hPa 0,0 l/m 0 min 0 min 0,0 UV-I 0 W/m 12,6 km/h (3 Bft)
22.07.2014 04:40 19,1 C 17,8 C 100 % 1015,1 hPa 0,0 l/m 0 min 0 min 0,0 UV-I 0 W/m 8,4 km/h (2 Bft)
22.07.2014 04:42 19,1 C 17,8 C 100 % 1015,0 hPa 0,0 l/m 0 min 0 min 0,0 UV-I 0 W/m 10,5 km/h (2 Bft)
22.07.2014 04:44 19,1 C 17,8 C 100 % 1015,0 hPa 0,0 l/m 0 min 0 min 0,0 UV-I 0 W/m 10,5 km/h (2 Bft)
22.07.2014 04:46 19,1 C 17,8 C 100 % 1015,0 hPa 0,0 l/m 0 min 0 min 0,0 UV-I 0 W/m 8,4 km/h (2 Bft)
22.07.2014 04:48 19,1 C 17,8 C 100 % 1014,9 hPa 0,0 l/m 0 min 0 min 0,0 UV-I 0 W/m 8,4 km/h (2 Bft)
22.07.2014 04:50 19,1 C 17,8 C 100 % 1014,9 hPa 0,0 l/m 0 min 0 min 0,0 UV-I 0 W/m 10,5 km/h (2 Bft)
22.07.2014 04:52 19,1 C 17,8 C 100 % 1015,0 hPa 0,0 l/m 0 min 0 min 0,0 UV-I 0 W/m 8,4 km/h (2 Bft)
22.07.2014 04:54 19,1 C 17,8 C 100 % 1014,9 hPa 0,0 l/m 0 min 0 min 0,0 UV-I 0 W/m 8,4 km/h (2 Bft)
22.07.2014 04:56 19,1 C 17,8 C 100 % 1014,8 hPa 0,0 l/m 0 min 0 min 0,0 UV-I 0 W/m 2,1 km/h (1 Bft)
22.07.2014 04:58 19,1 C 17,8 C 100 % 1014,9 hPa 0,0 l/m 0 min 0 min 0,0 UV-I 0 W/m 0,0 km/h (0 Bft)
22.07.2014 05:00 19,1 C 17,8 C 100 % 1014,8 hPa 0,0 l/m 0 min 0 min 0,0 UV-I 0 W/m 8,4 km/h (2 Bft)
22.07.2014 05:02 19,1 C 17,8 C 100 % 1014,8 hPa 0,0 l/m 0 min 0 min 0,0 UV-I 0 W/m 0,0 km/h (0 Bft)
22.07.2014 05:04 19,1 C 17,8 C 100 % 1014,9 hPa 0,0 l/m 0 min 0 min 0,0 UV-I 0 W/m 0,0 km/h (0 Bft)
22.07.2014 05:06 19,2 C 17,8 C 100 % 1015,0 hPa 0,0 l/m 0 min 0 min 0,0 UV-I 0 W/m 0,0 km/h (0 Bft)
22.07.2014 05:08 19,2 C 17,8 C 100 % 1015,0 hPa 0,0 l/m 0 min 0 min 0,0 UV-I 0 W/m 2,1 km/h (1 Bft)
22.07.2014 05:10 19,1 C 17,8 C 100 % 1015,0 hPa 0,0 l/m 0 min 0 min 0,0 UV-I 0 W/m 0,0 km/h (0 Bft)
22.07.2014 05:12 19,2 C 17,8 C 100 % 1015,0 hPa 0,0 l/m 0 min 0 min 0,0 UV-I 0 W/m 0,0 km/h (0 Bft)
22.07.2014 05:14 19,2 C 17,8 C 100 % 1015,0 hPa 0,0 l/m 0 min 0 min 0,0 UV-I 0 W/m 0,0 km/h (0 Bft)
22.07.2014 05:16 19,1 C 17,8 C 100 % 1015,0 hPa 0,0 l/m 0 min 0 min 0,0 UV-I 0 W/m 2,1 km/h (1 Bft)
22.07.2014 05:18 19,2 C 17,8 C 100 % 1015,0 hPa 0,0 l/m 0 min 2 min 0,0 UV-I 0 W/m 0,0 km/h (0 Bft)
22.07.2014 05:20 19,2 C 17,8 C 100 % 1015,0 hPa 0,0 l/m 0 min 2 min 0,0 UV-I 0 W/m 0,0 km/h (0 Bft)
22.07.2014 05:22 19,2 C 17,8 C 100 % 1015,0 hPa 0,0 l/m 0 min 0 min 0,0 UV-I 0 W/m 0,0 km/h (0 Bft)
22.07.2014 05:24 19,2 C 17,8 C 100 % 1015,1 hPa 0,0 l/m 0 min 0 min 0,0 UV-I 0 W/m 0,0 km/h (0 Bft)
22.07.2014 05:26 19,2 C 17,8 C 100 % 1015,1 hPa 0,0 l/m 0 min 0 min 0,0 UV-I 0 W/m 0,0 km/h (0 Bft)
22.07.2014 05:28 19,2 C 17,8 C 100 % 1015,1 hPa 0,0 l/m 0 min 0 min 0,0 UV-I 0 W/m 0,0 km/h (0 Bft)
22.07.2014 05:30 19,2 C 17,8 C 100 % 1015,1 hPa 0,0 l/m 0 min 0 min 0,0 UV-I 0 W/m 0,0 km/h (0 Bft)
22.07.2014 05:32 19,2 C 17,8 C 100 % 1015,1 hPa 0,0 l/m 0 min 0 min 0,0 UV-I 0 W/m 0,0 km/h (0 Bft)
22.07.2014 05:34 19,2 C 17,8 C 100 % 1015,2 hPa 0,0 l/m 0 min 0 min 0,0 UV-I 0 W/m 0,0 km/h (0 Bft)
22.07.2014 05:36 19,2 C 17,8 C 100 % 1015,2 hPa 0,0 l/m 0 min 0 min 0,0 UV-I 0 W/m 0,0 km/h (0 Bft)
22.07.2014 05:38 19,2 C 17,8 C 100 % 1015,2 hPa 0,0 l/m 0 min 0 min 0,0 UV-I 0 W/m 0,0 km/h (0 Bft)
22.07.2014 05:40 19,2 C 17,8 C 100 % 1015,1 hPa 0,0 l/m 0 min 0 min 0,0 UV-I 0 W/m 0,0 km/h (0 Bft)
22.07.2014 05:42 19,2 C 17,8 C 100 % 1015,1 hPa 0,0 l/m 0 min 0 min 0,0 UV-I 0 W/m 0,0 km/h (0 Bft)
22.07.2014 05:44 19,2 C 17,8 C 100 % 1015,1 hPa 0,0 l/m 0 min 0 min 0,0 UV-I 0 W/m 0,0 km/h (0 Bft)
22.07.2014 05:46 19,2 C 17,8 C 100 % 1015,2 hPa 0,0 l/m 0 min 0 min 0,0 UV-I 0 W/m 2,1 km/h (1 Bft)
22.07.2014 05:48 19,2 C 17,8 C 100 % 1015,2 hPa 0,0 l/m 0 min 0 min 0,0 UV-I 0 W/m 0,0 km/h (0 Bft)
22.07.2014 05:50 19,2 C 17,8 C 100 % 1015,2 hPa 0,0 l/m 0 min 0 min 0,0 UV-I 0 W/m 0,0 km/h (0 Bft)
22.07.2014 05:52 19,2 C 17,8 C 100 % 1015,2 hPa 0,0 l/m 0 min 0 min 0,0 UV-I 4 W/m 2,1 km/h (1 Bft)
22.07.2014 05:54 19,2 C 17,8 C 100 % 1015,2 hPa 0,0 l/m 0 min 0 min 0,0 UV-I 5 W/m 2,1 km/h (1 Bft)
22.07.2014 05:56 19,2 C 17,8 C 100 % 1015,2 hPa 0,0 l/m 0 min 0 min 0,0 UV-I 5 W/m 0,0 km/h (0 Bft)
22.07.2014 05:58 19,2 C 17,8 C 100 % 1015,2 hPa 0,0 l/m 0 min 0 min 0,0 UV-I 5 W/m 2,1 km/h (1 Bft)
22.07.2014 06:00 19,2 C 17,8 C 100 % 1015,2 hPa 0,0 l/m 0 min 0 min 0,0 UV-I 5 W/m 8,4 km/h (2 Bft)
22.07.2014 06:02 19,2 C 17,8 C 100 % 1015,2 hPa 0,0 l/m 0 min 0 min 0,0 UV-I 5 W/m 4,2 km/h (1 Bft)
22.07.2014 06:06 19,2 C 17,8 C 100 % 1015,2 hPa 0,0 l/m 0 min 0 min 0,0 UV-I 5 W/m 10,5 km/h (2 Bft)
22.07.2014 06:08 19,2 C 17,8 C 100 % 1015,3 hPa 0,0 l/m 0 min 0 min 0,0 UV-I 5 W/m 8,4 km/h (2 Bft)
22.07.2014 06:10 19,2 C 17,8 C 100 % 1015,2 hPa 0,0 l/m 0 min 0 min 0,0 UV-I 5 W/m 12,6 km/h (3 Bft)
22.07.2014 06:12 19,2 C 17,8 C 100 % 1015,2 hPa 0,0 l/m 0 min 0 min 0,0 UV-I 6 W/m 12,6 km/h (3 Bft)
22.07.2014 06:14 19,2 C 17,8 C 100 % 1015,2 hPa 0,0 l/m 0 min 0 min 0,0 UV-I 7 W/m 10,5 km/h (2 Bft)
22.07.2014 06:16 19,2 C 17,8 C 100 % 1015,2 hPa 0,0 l/m 0 min 0 min 0,0 UV-I 7 W/m 10,5 km/h (2 Bft)
22.07.2014 06:18 19,2 C 17,8 C 100 % 1015,2 hPa 0,0 l/m 0 min 0 min 0,0 UV-I 7 W/m 10,5 km/h (2 Bft)
22.07.2014 06:20 19,2 C 17,8 C 100 % 1015,3 hPa 0,0 l/m 0 min 0 min 0,0 UV-I 8 W/m 16,7 km/h (3 Bft)
22.07.2014 06:22 19,2 C 17,8 C 100 % 1015,3 hPa 0,0 l/m 0 min 0 min 0,0 UV-I 11 W/m 10,5 km/h (2 Bft)
22.07.2014 06:24 19,2 C 17,8 C 100 % 1015,3 hPa 0,0 l/m 0 min 0 min 0,0 UV-I 11 W/m 14,6 km/h (3 Bft)
22.07.2014 06:26 19,2 C 17,8 C 100 % 1015,2 hPa 0,0 l/m 0 min 0 min 0,0 UV-I 11 W/m 10,5 km/h (2 Bft)
22.07.2014 06:28 19,2 C 17,8 C 100 % 1015,3 hPa 0,0 l/m 0 min 0 min 0,0 UV-I 11 W/m 12,6 km/h (3 Bft)
22.07.2014 06:30 19,2 C 17,8 C 100 % 1015,2 hPa 0,0 l/m 0 min 0 min 0,0 UV-I 11 W/m 12,6 km/h (3 Bft)
22.07.2014 06:32 19,2 C 17,8 C 100 % 1015,2 hPa 0,0 l/m 0 min 0 min 0,0 UV-I 12 W/m 14,6 km/h (3 Bft)
22.07.2014 06:34 19,2 C 17,8 C 100 % 1015,2 hPa 0,0 l/m 0 min 0 min 0,0 UV-I 12 W/m 12,6 km/h (3 Bft)
22.07.2014 06:36 19,2 C 17,8 C 100 % 1015,2 hPa 0,0 l/m 0 min 0 min 0,0 UV-I 13 W/m 14,6 km/h (3 Bft)
22.07.2014 06:38 19,2 C 17,8 C 100 % 1015,3 hPa 0,0 l/m 0 min 0 min 0,0 UV-I 17 W/m 10,5 km/h (2 Bft)
22.07.2014 06:40 19,2 C 17,8 C 100 % 1015,3 hPa 0,0 l/m 0 min 0 min 0,0 UV-I 21 W/m 12,6 km/h (3 Bft)
22.07.2014 06:42 19,2 C 17,8 C 100 % 1015,4 hPa 0,0 l/m 0 min 0 min 0,0 UV-I 21 W/m 12,6 km/h (3 Bft)
22.07.2014 06:44 19,2 C 17,8 C 100 % 1015,3 hPa 0,0 l/m 0 min 0 min 0,0 UV-I 19 W/m 8,4 km/h (2 Bft)
22.07.2014 06:46 19,2 C 17,8 C 100 % 1015,3 hPa 0,0 l/m 0 min 0 min 0,0 UV-I 22 W/m 8,4 km/h (2 Bft)
22.07.2014 06:48 19,2 C 17,8 C 100 % 1015,4 hPa 0,0 l/m 0 min 0 min 0,0 UV-I 23 W/m 6,3 km/h (2 Bft)
22.07.2014 06:50 19,2 C 17,8 C 100 % 1015,4 hPa 0,0 l/m 0 min 0 min 0,0 UV-I 21 W/m 12,6 km/h (3 Bft)
22.07.2014 06:52 19,2 C 17,8 C 100 % 1015,5 hPa 0,0 l/m 0 min 0 min 0,0 UV-I 21 W/m 10,5 km/h (2 Bft)
22.07.2014 06:54 19,2 C 17,8 C 100 % 1015,5 hPa 0,0 l/m 0 min 0 min 0,0 UV-I 21 W/m 10,5 km/h (2 Bft)
22.07.2014 06:56 19,2 C 17,8 C 100 % 1015,5 hPa 0,0 l/m 0 min 0 min 0,0 UV-I 23 W/m 12,6 km/h (3 Bft)
22.07.2014 06:58 19,2 C 17,8 C 100 % 1015,5 hPa 0,0 l/m 0 min 0 min 0,0 UV-I 23 W/m 12,6 km/h (3 Bft)
22.07.2014 07:00 19,2 C 17,8 C 100 % 1015,6 hPa 0,0 l/m 0 min 0 min 0,0 UV-I 24 W/m 12,6 km/h (3 Bft)
22.07.2014 07:02 19,2 C 17,8 C 100 % 1015,6 hPa 0,0 l/m 0 min 0 min 0,0 UV-I 25 W/m 12,6 km/h (3 Bft)
22.07.2014 07:04 19,2 C 17,8 C 100 % 1015,5 hPa 0,0 l/m 0 min 0 min 0,0 UV-I 26 W/m 10,5 km/h (2 Bft)
22.07.2014 07:06 19,2 C 17,8 C 100 % 1015,5 hPa 0,0 l/m 0 min 0 min 0,0 UV-I 26 W/m 12,6 km/h (3 Bft)
22.07.2014 07:08 19,2 C 17,8 C 100 % 1015,5 hPa 0,0 l/m 0 min 0 min 0,0 UV-I 26 W/m 10,5 km/h (2 Bft)
22.07.2014 07:10 19,2 C 17,8 C 100 % 1015,6 hPa 0,0 l/m 0 min 0 min 0,0 UV-I 25 W/m 6,3 km/h (2 Bft)
22.07.2014 07:12 19,2 C 17,8 C 100 % 1015,6 hPa 0,0 l/m 0 min 0 min 0,0 UV-I 25 W/m 10,5 km/h (2 Bft)
22.07.2014 07:14 19,2 C 17,8 C 100 % 1015,6 hPa 0,0 l/m 0 min 0 min 0,0 UV-I 26 W/m 12,6 km/h (3 Bft)
22.07.2014 07:16 19,2 C 17,8 C 100 % 1015,6 hPa 0,0 l/m 0 min 0 min 0,0 UV-I 25 W/m 12,6 km/h (3 Bft)
22.07.2014 07:18 19,2 C 17,8 C 100 % 1015,6 hPa 0,0 l/m 0 min 0 min 0,0 UV-I 25 W/m 10,5 km/h (2 Bft)
22.07.2014 07:20 19,2 C 17,8 C 100 % 1015,6 hPa 0,0 l/m 0 min 0 min 0,0 UV-I 25 W/m 18,8 km/h (3 Bft)
22.07.2014 07:22 19,2 C 17,8 C 100 % 1015,6 hPa 0,0 l/m 0 min 0 min 0,0 UV-I 25 W/m 12,6 km/h (3 Bft)
22.07.2014 07:24 19,2 C 17,8 C 100 % 1015,6 hPa 0,0 l/m 0 min 0 min 0,0 UV-I 25 W/m 10,5 km/h (2 Bft)
22.07.2014 07:26 19,2 C 17,8 C 100 % 1015,6 hPa 0,0 l/m 0 min 0 min 0,0 UV-I 27 W/m 12,6 km/h (3 Bft)
22.07.2014 07:28 19,2 C 17,8 C 100 % 1015,7 hPa 0,0 l/m 0 min 0 min 0,0 UV-I 28 W/m 6,3 km/h (2 Bft)
22.07.2014 07:30 19,2 C 17,8 C 100 % 1015,7 hPa 0,0 l/m 0 min 0 min 0,0 UV-I 28 W/m 0,0 km/h (0 Bft)
22.07.2014 07:32 19,3 C 18,3 C 100 % 1015,7 hPa 0,0 l/m 0 min 0 min 0,0 UV-I 28 W/m 6,3 km/h (2 Bft)
22.07.2014 07:34 19,3 C 18,3 C 100 % 1015,7 hPa 0,0 l/m 0 min 0 min 0,0 UV-I 28 W/m 12,6 km/h (3 Bft)
22.07.2014 07:36 19,3 C 18,3 C 100 % 1015,7 hPa 0,0 l/m 0 min 0 min 0,0 UV-I 26 W/m 8,4 km/h (2 Bft)
22.07.2014 07:38 19,3 C 17,8 C 100 % 1015,8 hPa 0,0 l/m 0 min 0 min 0,0 UV-I 29 W/m 12,6 km/h (3 Bft)
22.07.2014 07:40 19,3 C 17,8 C 100 % 1015,8 hPa 0,0 l/m 0 min 0 min 0,0 UV-I 34 W/m 12,6 km/h (3 Bft)
22.07.2014 07:42 19,3 C 18,3 C 100 % 1015,8 hPa 0,0 l/m 0 min 0 min 0,0 UV-I 38 W/m 4,2 km/h (1 Bft)
22.07.2014 07:44 19,3 C 17,8 C 100 % 1015,8 hPa 0,0 l/m 0 min 0 min 0,0 UV-I 44 W/m 12,6 km/h (3 Bft)
22.07.2014 07:46 19,3 C 17,8 C 100 % 1015,8 hPa 0,0 l/m 0 min 0 min 0,0 UV-I 46 W/m 16,7 km/h (3 Bft)
22.07.2014 07:48 19,3 C 18,3 C 100 % 1015,7 hPa 0,0 l/m 0 min 0 min 0,0 UV-I 52 W/m 10,5 km/h (2 Bft)
22.07.2014 07:50 19,3 C 17,8 C 100 % 1015,7 hPa 0,0 l/m 0 min 0 min 0,0 UV-I 55 W/m 10,5 km/h (2 Bft)
22.07.2014 07:52 19,3 C 17,8 C 100 % 1015,7 hPa 0,0 l/m 0 min 0 min 0,0 UV-I 60 W/m 8,4 km/h (2 Bft)
22.07.2014 07:54 19,3 C 17,8 C 100 % 1015,7 hPa 0,0 l/m 0 min 0 min 0,0 UV-I 50 W/m 8,4 km/h (2 Bft)
22.07.2014 07:56 19,3 C 17,8 C 100 % 1015,8 hPa 0,0 l/m 0 min 0 min 0,0 UV-I 51 W/m 12,6 km/h (3 Bft)
22.07.2014 07:58 19,3 C 17,8 C 100 % 1015,8 hPa 0,0 l/m 0 min 0 min 0,0 UV-I 57 W/m 10,5 km/h (2 Bft)
22.07.2014 08:00 19,3 C 17,8 C 100 % 1015,8 hPa 0,0 l/m 0 min 0 min 0,0 UV-I 72 W/m 8,4 km/h (2 Bft)
22.07.2014 08:02 19,3 C 17,8 C 100 % 1015,9 hPa 0,0 l/m 0 min 0 min 0,0 UV-I 65 W/m 10,5 km/h (2 Bft)
22.07.2014 08:04 19,3 C 17,8 C 100 % 1015,9 hPa 0,0 l/m 0 min 0 min 0,0 UV-I 73 W/m 10,5 km/h (2 Bft)
22.07.2014 08:06 19,3 C 17,8 C 100 % 1015,9 hPa 0,0 l/m 0 min 0 min 0,0 UV-I 80 W/m 12,6 km/h (3 Bft)
22.07.2014 08:08 19,3 C 17,8 C 100 % 1015,9 hPa 0,0 l/m 0 min 0 min 0,0 UV-I 87 W/m 8,4 km/h (2 Bft)
22.07.2014 08:10 19,3 C 17,8 C 100 % 1015,9 hPa 0,0 l/m 0 min 0 min 0,0 UV-I 98 W/m 10,5 km/h (2 Bft)
22.07.2014 08:12 19,3 C 17,8 C 100 % 1015,9 hPa 0,0 l/m 0 min 0 min 0,0 UV-I 106 W/m 8,4 km/h (2 Bft)
22.07.2014 08:14 19,3 C 17,8 C 100 % 1016,0 hPa 0,0 l/m 0 min 0 min 0,0 UV-I 110 W/m 10,5 km/h (2 Bft)
22.07.2014 08:16 19,3 C 18,3 C 100 % 1016,0 hPa 0,0 l/m 0 min 0 min 0,0 UV-I 126 W/m 8,4 km/h (2 Bft)
22.07.2014 08:18 19,3 C 18,3 C 100 % 1016,0 hPa 0,0 l/m 0 min 0 min 0,0 UV-I 136 W/m 12,6 km/h (3 Bft)
22.07.2014 08:20 19,3 C 18,3 C 100 % 1016,1 hPa 0,0 l/m 0 min 0 min 0,0 UV-I 136 W/m 12,6 km/h (3 Bft)
22.07.2014 08:22 19,4 C 18,3 C 100 % 1016,1 hPa 0,0 l/m 0 min 0 min 0,0 UV-I 148 W/m 8,4 km/h (2 Bft)
22.07.2014 08:24 19,4 C 18,3 C 100 % 1016,1 hPa 0,0 l/m 0 min 0 min 0,0 UV-I 140 W/m 14,6 km/h (3 Bft)
22.07.2014 08:26 19,4 C 18,3 C 100 % 1016,1 hPa 0,0 l/m 0 min 0 min 0,0 UV-I 164 W/m 14,6 km/h (3 Bft)
22.07.2014 08:28 19,4 C 18,3 C 100 % 1016,1 hPa 0,0 l/m 0 min 0 min 0,0 UV-I 169 W/m 16,7 km/h (3 Bft)
22.07.2014 08:30 19,4 C 18,3 C 100 % 1016,1 hPa 0,0 l/m 0 min 0 min 0,0 UV-I 161 W/m 12,6 km/h (3 Bft)
22.07.2014 08:32 19,4 C 18,3 C 100 % 1016,2 hPa 0,0 l/m 0 min 0 min 0,0 UV-I 154 W/m 8,4 km/h (2 Bft)
22.07.2014 08:34 19,4 C 18,3 C 100 % 1016,2 hPa 0,0 l/m 0 min 0 min 0,0 UV-I 157 W/m 10,5 km/h (2 Bft)
22.07.2014 08:36 19,5 C 18,3 C 100 % 1016,2 hPa 0,0 l/m 0 min 0 min 0,0 UV-I 139 W/m 12,6 km/h (3 Bft)
22.07.2014 08:38 19,5 C 18,3 C 100 % 1016,2 hPa 0,0 l/m 0 min 0 min 0,0 UV-I 157 W/m 14,6 km/h (3 Bft)
22.07.2014 08:40 19,5 C 18,3 C 100 % 1016,3 hPa 0,0 l/m 2 min 0 min 0,0 UV-I 262 W/m 16,7 km/h (3 Bft)
22.07.2014 08:42 19,5 C 18,3 C 100 % 1016,3 hPa 0,0 l/m 2 min 0 min 0,0 UV-I 258 W/m 12,6 km/h (3 Bft)
22.07.2014 08:44 19,6 C 18,3 C 100 % 1016,3 hPa 0,0 l/m 2 min 0 min 0,0 UV-I 303 W/m 16,7 km/h (3 Bft)
22.07.2014 08:46 19,6 C 18,3 C 100 % 1016,3 hPa 0,0 l/m 2 min 0 min 0,0 UV-I 277 W/m 18,8 km/h (3 Bft)
22.07.2014 08:48 19,7 C 18,3 C 100 % 1016,3 hPa 0,0 l/m 2 min 0 min 0,0 UV-I 356 W/m 18,8 km/h (3 Bft)
22.07.2014 08:50 19,8 C 18,3 C 100 % 1016,3 hPa 0,0 l/m 2 min 0 min 0,0 UV-I 290 W/m 14,6 km/h (3 Bft)
22.07.2014 08:52 19,9 C 18,9 C 100 % 1016,2 hPa 0,0 l/m 2 min 0 min 0,0 UV-I 279 W/m 16,7 km/h (3 Bft)
22.07.2014 08:54 20,1 C 18,9 C 100 % 1016,2 hPa 0,0 l/m 2 min 0 min 0,0 UV-I 250 W/m 18,8 km/h (3 Bft)
22.07.2014 08:56 20,1 C 18,9 C 99 % 1016,2 hPa 0,0 l/m 2 min 0 min 0,3 UV-I 302 W/m 16,7 km/h (3 Bft)
22.07.2014 08:58 20,2 C 18,9 C 100 % 1016,3 hPa 0,0 l/m 2 min 0 min 0,5 UV-I 329 W/m 18,8 km/h (3 Bft)
22.07.2014 09:00 20,2 C 18,9 C 99 % 1016,3 hPa 0,0 l/m 2 min 0 min 0,6 UV-I 310 W/m 16,7 km/h (3 Bft)
22.07.2014 09:02 20,3 C 18,9 C 99 % 1016,3 hPa 0,0 l/m 2 min 0 min 0,7 UV-I 368 W/m 16,7 km/h (3 Bft)
22.07.2014 09:04 20,4 C 18,9 C 99 % 1016,3 hPa 0,0 l/m 2 min 0 min 0,8 UV-I 404 W/m 20,9 km/h (4 Bft)
22.07.2014 09:06 20,4 C 18,9 C 99 % 1016,3 hPa 0,0 l/m 2 min 0 min 0,6 UV-I 314 W/m 18,8 km/h (3 Bft)
22.07.2014 09:08 20,4 C 18,9 C 98 % 1016,4 hPa 0,0 l/m 2 min 0 min 0,6 UV-I 332 W/m 20,9 km/h (4 Bft)
22.07.2014 09:10 20,4 C 18,9 C 97 % 1016,4 hPa 0,0 l/m 2 min 0 min 0,7 UV-I 344 W/m 20,9 km/h (4 Bft)
22.07.2014 09:12 20,6 C 18,9 C 97 % 1016,3 hPa 0,0 l/m 2 min 0 min 0,8 UV-I 303 W/m 16,7 km/h (3 Bft)
22.07.2014 09:14 20,7 C 18,9 C 96 % 1016,4 hPa 0,0 l/m 2 min 0 min 0,9 UV-I 448 W/m 18,8 km/h (3 Bft)
22.07.2014 09:16 20,9 C 19,4 C 96 % 1016,4 hPa 0,0 l/m 2 min 0 min 0,9 UV-I 468 W/m 14,6 km/h (3 Bft)
22.07.2014 09:18 21,1 C 19,4 C 95 % 1016,3 hPa 0,0 l/m 2 min 0 min 1,1 UV-I 563 W/m 18,8 km/h (3 Bft)
22.07.2014 09:20 21,2 C 19,4 C 95 % 1016,4 hPa 0,0 l/m 2 min 0 min 1,3 UV-I 593 W/m 16,7 km/h (3 Bft)
22.07.2014 09:22 21,2 C 18,9 C 93 % 1016,4 hPa 0,0 l/m 2 min 0 min 1,3 UV-I 548 W/m 23,0 km/h (4 Bft)
22.07.2014 09:24 21,3 C 18,9 C 92 % 1016,4 hPa 0,0 l/m 2 min 0 min 1,3 UV-I 552 W/m 20,9 km/h (4 Bft)
22.07.2014 09:26 21,5 C 19,4 C 93 % 1016,5 hPa 0,0 l/m 2 min 0 min 1,1 UV-I 564 W/m 23,0 km/h (4 Bft)
22.07.2014 09:28 21,6 C 19,4 C 92 % 1016,6 hPa 0,0 l/m 2 min 0 min 1,4 UV-I 546 W/m 23,0 km/h (4 Bft)
22.07.2014 09:30 21,6 C 19,4 C 91 % 1016,5 hPa 0,0 l/m 2 min 0 min 1,3 UV-I 564 W/m 25,1 km/h (4 Bft)
22.07.2014 09:32 21,5 C 18,9 C 90 % 1016,5 hPa 0,0 l/m 2 min 0 min 1,4 UV-I 532 W/m 20,9 km/h (4 Bft)
22.07.2014 09:34 21,5 C 18,9 C 90 % 1016,5 hPa 0,0 l/m 2 min 0 min 1,4 UV-I 465 W/m 18,8 km/h (3 Bft)
22.07.2014 09:36 21,4 C 18,9 C 89 % 1016,6 hPa 0,0 l/m 2 min 0 min 1,4 UV-I 447 W/m 18,8 km/h (3 Bft)
22.07.2014 09:38 21,3 C 18,9 C 89 % 1016,6 hPa 0,0 l/m 2 min 0 min 1,4 UV-I 417 W/m 20,9 km/h (4 Bft)
22.07.2014 09:40 21,2 C 18,9 C 89 % 1016,6 hPa 0,0 l/m 2 min 0 min 1,4 UV-I 432 W/m 23,0 km/h (4 Bft)
22.07.2014 09:42 21,2 C 18,9 C 90 % 1016,6 hPa 0,0 l/m 2 min 0 min 1,4 UV-I 463 W/m 16,7 km/h (3 Bft)
22.07.2014 09:44 21,3 C 18,9 C 90 % 1016,6 hPa 0,0 l/m 2 min 0 min 1,6 UV-I 477 W/m 16,7 km/h (3 Bft)
22.07.2014 09:46 21,4 C 18,9 C 91 % 1016,5 hPa 0,0 l/m 2 min 0 min 1,6 UV-I 477 W/m 14,6 km/h (3 Bft)
22.07.2014 09:48 21,5 C 18,9 C 90 % 1016,5 hPa 0,0 l/m 2 min 0 min 1,6 UV-I 473 W/m 18,8 km/h (3 Bft)
22.07.2014 09:50 21,6 C 19,4 C 89 % 1016,5 hPa 0,0 l/m 2 min 0 min 1,6 UV-I 438 W/m 18,8 km/h (3 Bft)
22.07.2014 09:52 21,6 C 18,9 C 89 % 1016,5 hPa 0,0 l/m 2 min 0 min 1,5 UV-I 410 W/m 14,6 km/h (3 Bft)
22.07.2014 09:54 21,6 C 19,4 C 89 % 1016,6 hPa 0,0 l/m 2 min 0 min 1,6 UV-I 412 W/m 8,4 km/h (2 Bft)
22.07.2014 09:56 21,6 C 19,4 C 88 % 1016,7 hPa 0,0 l/m 2 min 0 min 1,6 UV-I 411 W/m 12,6 km/h (3 Bft)
22.07.2014 09:58 21,7 C 19,4 C 89 % 1016,7 hPa 0,0 l/m 2 min 0 min 1,6 UV-I 440 W/m 16,7 km/h (3 Bft)
22.07.2014 10:00 21,7 C 19,4 C 88 % 1016,7 hPa 0,0 l/m 2 min 0 min 1,7 UV-I 444 W/m 18,8 km/h (3 Bft)
22.07.2014 10:02 21,6 C 18,9 C 87 % 1016,8 hPa 0,0 l/m 2 min 0 min 1,8 UV-I 474 W/m 23,0 km/h (4 Bft)
22.07.2014 10:04 21,5 C 18,9 C 85 % 1016,8 hPa 0,0 l/m 2 min 0 min 1,9 UV-I 472 W/m 23,0 km/h (4 Bft)
22.07.2014 10:06 21,5 C 18,9 C 85 % 1016,8 hPa 0,0 l/m 2 min 0 min 1,9 UV-I 480 W/m 20,9 km/h (4 Bft)
22.07.2014 10:08 21,6 C 19,4 C 85 % 1016,9 hPa 0,0 l/m 2 min 0 min 1,8 UV-I 444 W/m 25,1 km/h (4 Bft)
22.07.2014 10:10 21,6 C 19,4 C 85 % 1016,8 hPa 0,0 l/m 2 min 0 min 1,7 UV-I 383 W/m 18,8 km/h (3 Bft)
22.07.2014 10:12 21,6 C 19,4 C 85 % 1016,9 hPa 0,0 l/m 2 min 0 min 1,7 UV-I 378 W/m 20,9 km/h (4 Bft)
22.07.2014 10:14 21,6 C 20,0 C 86 % 1016,9 hPa 0,0 l/m 2 min 0 min 1,7 UV-I 359 W/m 16,7 km/h (3 Bft)
22.07.2014 10:16 21,6 C 20,6 C 85 % 1016,9 hPa 0,0 l/m 2 min 0 min 1,6 UV-I 351 W/m 16,7 km/h (3 Bft)
22.07.2014 10:18 21,6 C 21,1 C 85 % 1016,9 hPa 0,0 l/m 2 min 0 min 1,6 UV-I 333 W/m 20,9 km/h (4 Bft)
22.07.2014 10:20 21,6 C 21,1 C 85 % 1016,9 hPa 0,0 l/m 2 min 0 min 1,6 UV-I 331 W/m 12,6 km/h (3 Bft)
22.07.2014 10:22 21,6 C 21,7 C 85 % 1017,0 hPa 0,0 l/m 2 min 0 min 1,8 UV-I 381 W/m 20,9 km/h (4 Bft)
22.07.2014 10:24 21,6 C 21,7 C 84 % 1016,9 hPa 0,0 l/m 2 min 0 min 1,9 UV-I 437 W/m 23,0 km/h (4 Bft)
22.07.2014 10:26 21,6 C 22,2 C 85 % 1016,8 hPa 0,0 l/m 2 min 0 min 2,1 UV-I 461 W/m 16,7 km/h (3 Bft)
22.07.2014 10:28 21,7 C 22,8 C 84 % 1016,9 hPa 0,0 l/m 2 min 0 min 2,1 UV-I 460 W/m 20,9 km/h (4 Bft)
22.07.2014 10:30 21,8 C 23,3 C 84 % 1016,8 hPa 0,0 l/m 2 min 0 min 2,2 UV-I 470 W/m 16,7 km/h (3 Bft)
22.07.2014 10:32 21,9 C 23,3 C 84 % 1016,9 hPa 0,0 l/m 2 min 0 min 2,4 UV-I 512 W/m 20,9 km/h (4 Bft)
22.07.2014 10:34 22,1 C 24,4 C 84 % 1016,9 hPa 0,0 l/m 2 min 0 min 2,6 UV-I 579 W/m 16,7 km/h (3 Bft)
22.07.2014 10:36 22,2 C 23,9 C 83 % 1016,9 hPa 0,0 l/m 2 min 0 min 2,7 UV-I 603 W/m 18,8 km/h (3 Bft)
22.07.2014 10:38 22,2 C 23,9 C 81 % 1016,9 hPa 0,0 l/m 2 min 0 min 2,7 UV-I 580 W/m 14,6 km/h (3 Bft)
22.07.2014 10:40 22,2 C 23,3 C 81 % 1016,8 hPa 0,0 l/m 2 min 0 min 2,6 UV-I 551 W/m 16,7 km/h (3 Bft)
22.07.2014 10:42 22,2 C 23,3 C 81 % 1016,8 hPa 0,0 l/m 2 min 0 min 2,4 UV-I 464 W/m 18,8 km/h (3 Bft)
22.07.2014 10:44 22,2 C 23,3 C 81 % 1016,8 hPa 0,0 l/m 2 min 0 min 2,3 UV-I 423 W/m 16,7 km/h (3 Bft)
22.07.2014 10:46 22,2 C 23,9 C 82 % 1016,9 hPa 0,0 l/m 2 min 0 min 2,6 UV-I 522 W/m 14,6 km/h (3 Bft)
22.07.2014 10:48 22,4 C 24,4 C 82 % 1016,8 hPa 0,0 l/m 2 min 0 min 2,7 UV-I 544 W/m 14,6 km/h (3 Bft)
22.07.2014 10:50 22,6 C 23,9 C 83 % 1016,9 hPa 0,0 l/m 2 min 0 min 2,3 UV-I 474 W/m 14,6 km/h (3 Bft)
22.07.2014 10:52 22,7 C 23,9 C 81 % 1017,0 hPa 0,0 l/m 2 min 0 min 2,2 UV-I 366 W/m 14,6 km/h (3 Bft)
22.07.2014 10:54 22,7 C 23,3 C 81 % 1017,0 hPa 0,0 l/m 2 min 0 min 2,2 UV-I 374 W/m 18,8 km/h (3 Bft)
22.07.2014 10:56 22,6 C 23,3 C 80 % 1016,9 hPa 0,0 l/m 2 min 0 min 2,3 UV-I 412 W/m 18,8 km/h (3 Bft)
22.07.2014 10:58 22,6 C 23,3 C 80 % 1017,0 hPa 0,0 l/m 2 min 0 min 2,6 UV-I 486 W/m 16,7 km/h (3 Bft)
22.07.2014 11:00 22,6 C 23,3 C 79 % 1017,0 hPa 0,0 l/m 2 min 0 min 3,1 UV-I 594 W/m 18,8 km/h (3 Bft)
22.07.2014 11:02 22,6 C 23,9 C 80 % 1017,0 hPa 0,0 l/m 2 min 0 min 3,2 UV-I 616 W/m 12,6 km/h (3 Bft)
22.07.2014 11:04 22,7 C 23,9 C 80 % 1017,0 hPa 0,0 l/m 2 min 0 min 3,4 UV-I 663 W/m 14,6 km/h (3 Bft)
22.07.2014 11:06 22,8 C 23,9 C 80 % 1017,0 hPa 0,0 l/m 2 min 0 min 3,6 UV-I 701 W/m 20,9 km/h (4 Bft)
22.07.2014 11:08 22,9 C 24,4 C 79 % 1017,0 hPa 0,0 l/m 2 min 0 min 3,7 UV-I 730 W/m 16,7 km/h (3 Bft)
22.07.2014 11:10 23,2 C 25,0 C 80 % 1017,0 hPa 0,0 l/m 2 min 0 min 3,7 UV-I 734 W/m 20,9 km/h (4 Bft)
22.07.2014 11:12 23,3 C 25,6 C 78 % 1017,0 hPa 0,0 l/m 2 min 0 min 3,8 UV-I 765 W/m 23,0 km/h (4 Bft)
22.07.2014 11:14 23,3 C 25,0 C 76 % 1017,0 hPa 0,0 l/m 2 min 0 min 3,8 UV-I 747 W/m 23,0 km/h (4 Bft)
22.07.2014 11:16 23,3 C 25,0 C 77 % 1017,1 hPa 0,0 l/m 2 min 0 min 3,6 UV-I 662 W/m 23,0 km/h (4 Bft)
22.07.2014 11:18 23,3 C 24,4 C 76 % 1017,1 hPa 0,0 l/m 2 min 0 min 3,6 UV-I 651 W/m 23,0 km/h (4 Bft)
22.07.2014 11:20 23,4 C 24,4 C 77 % 1017,1 hPa 0,0 l/m 2 min 0 min 3,3 UV-I 560 W/m 18,8 km/h (3 Bft)
22.07.2014 11:22 23,4 C 23,9 C 76 % 1017,1 hPa 0,0 l/m 2 min 0 min 3,0 UV-I 460 W/m 18,8 km/h (3 Bft)
22.07.2014 11:24 23,3 C 23,9 C 76 % 1017,1 hPa 0,0 l/m 2 min 0 min 3,3 UV-I 482 W/m 16,7 km/h (3 Bft)
22.07.2014 11:26 23,4 C 24,4 C 77 % 1017,1 hPa 0,0 l/m 2 min 0 min 3,9 UV-I 703 W/m 16,7 km/h (3 Bft)
22.07.2014 11:28 23,6 C 25,6 C 78 % 1017,0 hPa 0,0 l/m 2 min 0 min 4,2 UV-I 791 W/m 20,9 km/h (4 Bft)
22.07.2014 11:30 23,7 C 25,0 C 76 % 1017,0 hPa 0,0 l/m 2 min 0 min 4,2 UV-I 801 W/m 29,3 km/h (5 Bft)
22.07.2014 11:32 23,6 C 23,9 C 75 % 1017,1 hPa 0,0 l/m 2 min 0 min 4,3 UV-I 826 W/m 29,3 km/h (5 Bft)
22.07.2014 11:34 23,6 C 23,3 C 75 % 1017,1 hPa 0,0 l/m 2 min 0 min 3,9 UV-I 684 W/m 25,1 km/h (4 Bft)
22.07.2014 11:36 23,4 C 22,8 C 75 % 1017,1 hPa 0,0 l/m 2 min 0 min 3,3 UV-I 573 W/m 25,1 km/h (4 Bft)
22.07.2014 11:38 23,4 C 23,3 C 76 % 1017,0 hPa 0,0 l/m 2 min 0 min 3,3 UV-I 518 W/m 31,4 km/h (5 Bft)
22.07.2014 11:40 23,4 C 23,3 C 74 % 1017,0 hPa 0,0 l/m 2 min 0 min 3,3 UV-I 522 W/m 23,0 km/h (4 Bft)
22.07.2014 11:42 23,3 C 23,3 C 74 % 1017,0 hPa 0,0 l/m 2 min 0 min 3,4 UV-I 553 W/m 31,4 km/h (5 Bft)
22.07.2014 11:44 23,2 C 23,9 C 74 % 1017,0 hPa 0,0 l/m 2 min 0 min 3,6 UV-I 604 W/m 27,2 km/h (4 Bft)
22.07.2014 11:46 23,3 C 24,4 C 75 % 1017,0 hPa 0,0 l/m 2 min 0 min 3,8 UV-I 649 W/m 20,9 km/h (4 Bft)
22.07.2014 11:48 23,3 C 25,0 C 75 % 1017,1 hPa 0,0 l/m 2 min 0 min 4,0 UV-I 701 W/m 27,2 km/h (4 Bft)
22.07.2014 11:50 23,4 C 25,6 C 76 % 1017,1 hPa 0,0 l/m 2 min 0 min 4,3 UV-I 756 W/m 27,2 km/h (4 Bft)
22.07.2014 11:52 23,8 C 26,7 C 77 % 1017,1 hPa 0,0 l/m 2 min 0 min 4,5 UV-I 765 W/m 20,9 km/h (4 Bft)
22.07.2014 11:54 24,0 C 26,7 C 76 % 1017,1 hPa 0,0 l/m 2 min 0 min 4,5 UV-I 771 W/m 25,1 km/h (4 Bft)
22.07.2014 11:56 24,2 C 26,7 C 75 % 1017,0 hPa 0,0 l/m 2 min 0 min 4,6 UV-I 803 W/m 27,2 km/h (4 Bft)
22.07.2014 11:58 24,3 C 26,7 C 76 % 1017,0 hPa 0,0 l/m 2 min 0 min 4,4 UV-I 772 W/m 20,9 km/h (4 Bft)
22.07.2014 12:00 24,3 C 26,1 C 73 % 1017,1 hPa 0,0 l/m 2 min 0 min 4,1 UV-I 667 W/m 20,9 km/h (4 Bft)
22.07.2014 12:02 24,2 C 26,1 C 74 % 1017,1 hPa 0,0 l/m 2 min 0 min 4,4 UV-I 723 W/m 23,0 km/h (4 Bft)
22.07.2014 12:06 24,0 C 26,7 C 75 % 1017,1 hPa 0,0 l/m 2 min 0 min 4,7 UV-I 793 W/m 23,0 km/h (4 Bft)
22.07.2014 12:08 24,1 C 26,7 C 76 % 1017,1 hPa 0,0 l/m 2 min 0 min 4,8 UV-I 807 W/m 27,2 km/h (4 Bft)
22.07.2014 12:10 24,3 C 26,7 C 76 % 1017,1 hPa 0,0 l/m 2 min 0 min 4,5 UV-I 723 W/m 23,0 km/h (4 Bft)
22.07.2014 12:12 24,5 C 27,2 C 76 % 1017,1 hPa 0,0 l/m 2 min 0 min 4,4 UV-I 673 W/m 23,0 km/h (4 Bft)
22.07.2014 12:14 24,6 C 26,7 C 74 % 1017,1 hPa 0,0 l/m 2 min 0 min 4,5 UV-I 629 W/m 20,9 km/h (4 Bft)
22.07.2014 12:16 24,4 C 26,7 C 73 % 1017,1 hPa 0,0 l/m 2 min 0 min 4,6 UV-I 533 W/m 18,8 km/h (3 Bft)
22.07.2014 12:18 24,4 C 26,1 C 75 % 1017,1 hPa 0,0 l/m 0 min 0 min 4,6 UV-I 348 W/m 23,0 km/h (4 Bft)
22.07.2014 12:20 24,3 C 26,1 C 75 % 1017,1 hPa 0,0 l/m 0 min 0 min 4,6 UV-I 275 W/m 18,8 km/h (3 Bft)
22.07.2014 12:22 24,4 C 26,7 C 76 % 1017,1 hPa 0,0 l/m 0 min 0 min 4,9 UV-I 287 W/m 16,7 km/h (3 Bft)
22.07.2014 12:24 24,4 C 26,7 C 75 % 1017,2 hPa 0,0 l/m 0 min 0 min 4,9 UV-I 300 W/m 16,7 km/h (3 Bft)
22.07.2014 12:26 24,4 C 26,7 C 75 % 1017,2 hPa 0,0 l/m 0 min 0 min 4,9 UV-I 266 W/m 27,2 km/h (4 Bft)
22.07.2014 12:28 24,4 C 26,1 C 74 % 1017,2 hPa 0,0 l/m 0 min 0 min 5,0 UV-I 284 W/m 18,8 km/h (3 Bft)
22.07.2014 12:30 24,6 C 26,7 C 76 % 1017,2 hPa 0,0 l/m 2 min 0 min 5,1 UV-I 463 W/m 23,0 km/h (4 Bft)
22.07.2014 12:32 24,6 C 26,7 C 74 % 1017,2 hPa 0,0 l/m 2 min 0 min 4,9 UV-I 765 W/m 20,9 km/h (4 Bft)
22.07.2014 12:34 24,6 C 26,7 C 75 % 1017,2 hPa 0,0 l/m 2 min 0 min 5,0 UV-I 814 W/m 18,8 km/h (3 Bft)
22.07.2014 12:36 24,7 C 26,7 C 75 % 1017,2 hPa 0,0 l/m 2 min 0 min 4,9 UV-I 830 W/m 20,9 km/h (4 Bft)
22.07.2014 12:38 24,7 C 26,1 C 74 % 1017,2 hPa 0,0 l/m 2 min 0 min 4,7 UV-I 778 W/m 29,3 km/h (5 Bft)
22.07.2014 12:40 24,6 C 25,6 C 74 % 1017,3 hPa 0,0 l/m 2 min 0 min 4,7 UV-I 756 W/m 23,0 km/h (4 Bft)
22.07.2014 12:42 24,5 C 25,0 C 76 % 1017,2 hPa 0,0 l/m 2 min 0 min 4,7 UV-I 753 W/m 25,1 km/h (4 Bft)
22.07.2014 12:44 24,4 C 25,0 C 75 % 1017,2 hPa 0,0 l/m 2 min 0 min 4,6 UV-I 742 W/m 23,0 km/h (4 Bft)
22.07.2014 12:46 24,4 C 25,0 C 76 % 1017,2 hPa 0,0 l/m 2 min 0 min 4,2 UV-I 673 W/m 20,9 km/h (4 Bft)
22.07.2014 12:48 24,5 C 25,0 C 76 % 1017,2 hPa 0,0 l/m 2 min 0 min 4,1 UV-I 638 W/m 20,9 km/h (4 Bft)
22.07.2014 12:50 24,4 C 25,0 C 75 % 1017,2 hPa 0,0 l/m 2 min 0 min 4,0 UV-I 653 W/m 23,0 km/h (4 Bft)
22.07.2014 12:52 24,5 C 25,0 C 77 % 1017,3 hPa 0,0 l/m 2 min 0 min 3,9 UV-I 595 W/m 20,9 km/h (4 Bft)
22.07.2014 12:54 24,6 C 24,4 C 75 % 1017,3 hPa 0,0 l/m 2 min 0 min 4,2 UV-I 660 W/m 18,8 km/h (3 Bft)
22.07.2014 12:56 24,5 C 24,4 C 75 % 1017,3 hPa 0,0 l/m 2 min 0 min 3,5 UV-I 682 W/m 23,0 km/h (4 Bft)
22.07.2014 12:58 24,5 C 24,4 C 76 % 1017,3 hPa 0,0 l/m 2 min 0 min 3,3 UV-I 619 W/m 23,0 km/h (4 Bft)
22.07.2014 13:00 24,5 C 24,4 C 76 % 1017,3 hPa 0,0 l/m 2 min 0 min 4,3 UV-I 685 W/m 18,8 km/h (3 Bft)
22.07.2014 13:02 24,6 C 24,4 C 77 % 1017,3 hPa 0,0 l/m 2 min 0 min 4,9 UV-I 811 W/m 18,8 km/h (3 Bft)
22.07.2014 13:04 24,6 C 25,0 C 75 % 1017,3 hPa 0,0 l/m 2 min 0 min 4,3 UV-I 838 W/m 16,7 km/h (3 Bft)
22.07.2014 13:06 24,6 C 24,4 C 75 % 1017,3 hPa 0,0 l/m 2 min 0 min 4,1 UV-I 838 W/m 20,9 km/h (4 Bft)
22.07.2014 13:08 24,6 C 24,4 C 75 % 1017,3 hPa 0,0 l/m 2 min 0 min 4,9 UV-I 829 W/m 23,0 km/h (4 Bft)
22.07.2014 13:10 24,7 C 24,4 C 75 % 1017,3 hPa 0,0 l/m 2 min 0 min 4,9 UV-I 839 W/m 25,1 km/h (4 Bft)
22.07.2014 13:12 24,8 C 24,4 C 74 % 1017,3 hPa 0,0 l/m 2 min 0 min 4,6 UV-I 892 W/m 23,0 km/h (4 Bft)
22.07.2014 13:14 24,7 C 25,0 C 76 % 1017,2 hPa 0,0 l/m 2 min 0 min 3,8 UV-I 821 W/m 18,8 km/h (3 Bft)
22.07.2014 13:16 24,7 C 25,0 C 75 % 1017,3 hPa 0,0 l/m 2 min 0 min 3,7 UV-I 545 W/m 18,8 km/h (3 Bft)
22.07.2014 13:18 24,9 C 25,0 C 76 % 1017,2 hPa 0,0 l/m 2 min 0 min 4,2 UV-I 857 W/m 18,8 km/h (3 Bft)
22.07.2014 13:20 25,1 C 25,0 C 75 % 1017,3 hPa 0,0 l/m 2 min 0 min 4,2 UV-I 861 W/m 25,1 km/h (4 Bft)
22.07.2014 13:22 25,1 C 25,0 C 74 % 1017,2 hPa 0,0 l/m 2 min 0 min 4,3 UV-I 861 W/m 20,9 km/h (4 Bft)
22.07.2014 13:24 25,1 C 25,0 C 74 % 1017,3 hPa 0,0 l/m 2 min 0 min 4,0 UV-I 861 W/m 20,9 km/h (4 Bft)
22.07.2014 13:26 25,0 C 24,4 C 75 % 1017,3 hPa 0,0 l/m 2 min 0 min 4,1 UV-I 861 W/m 18,8 km/h (3 Bft)
22.07.2014 13:28 25,1 C 25,0 C 76 % 1017,3 hPa 0,0 l/m 2 min 0 min 4,1 UV-I 738 W/m 23,0 km/h (4 Bft)
22.07.2014 13:30 25,1 C 25,0 C 74 % 1017,2 hPa 0,0 l/m 2 min 0 min 4,2 UV-I 492 W/m 14,6 km/h (3 Bft)
22.07.2014 13:32 25,2 C 25,0 C 73 % 1017,3 hPa 0,0 l/m 2 min 0 min 4,5 UV-I 667 W/m 23,0 km/h (4 Bft)
22.07.2014 13:34 25,4 C 25,0 C 75 % 1017,3 hPa 0,0 l/m 2 min 0 min 4,1 UV-I 733 W/m 18,8 km/h (3 Bft)
22.07.2014 13:36 25,3 C 25,0 C 72 % 1017,2 hPa 0,0 l/m 2 min 0 min 4,3 UV-I 733 W/m 20,9 km/h (4 Bft)
22.07.2014 13:38 25,3 C 25,0 C 74 % 1017,2 hPa 0,0 l/m 2 min 0 min 4,6 UV-I 724 W/m 16,7 km/h (3 Bft)
22.07.2014 13:40 25,5 C 25,6 C 74 % 1017,2 hPa 0,0 l/m 2 min 0 min 4,6 UV-I 761 W/m 23,0 km/h (4 Bft)
22.07.2014 13:42 25,7 C 25,0 C 72 % 1017,2 hPa 0,0 l/m 2 min 0 min 4,6 UV-I 730 W/m 25,1 km/h (4 Bft)
22.07.2014 13:44 25,7 C 25,0 C 74 % 1017,2 hPa 0,0 l/m 2 min 0 min 4,6 UV-I 738 W/m 16,7 km/h (3 Bft)
22.07.2014 13:46 25,7 C 25,0 C 72 % 1017,3 hPa 0,0 l/m 2 min 0 min 4,5 UV-I 715 W/m 18,8 km/h (3 Bft)
22.07.2014 13:48 25,7 C 25,0 C 73 % 1017,2 hPa 0,0 l/m 2 min 0 min 4,3 UV-I 638 W/m 20,9 km/h (4 Bft)
22.07.2014 13:50 25,6 C 25,0 C 73 % 1017,3 hPa 0,0 l/m 2 min 0 min 4,3 UV-I 682 W/m 25,1 km/h (4 Bft)
22.07.2014 13:52 25,8 C 25,6 C 72 % 1017,3 hPa 0,0 l/m 2 min 0 min 4,6 UV-I 737 W/m 23,0 km/h (4 Bft)
22.07.2014 13:54 25,8 C 25,0 C 71 % 1017,3 hPa 0,0 l/m 2 min 0 min 4,7 UV-I 770 W/m 25,1 km/h (4 Bft)
22.07.2014 13:56 25,6 C 25,0 C 70 % 1017,2 hPa 0,0 l/m 2 min 0 min 4,7 UV-I 774 W/m 29,3 km/h (5 Bft)
22.07.2014 13:58 25,4 C 24,4 C 71 % 1017,2 hPa 0,0 l/m 2 min 0 min 4,7 UV-I 747 W/m 23,0 km/h (4 Bft)
22.07.2014 14:00 25,4 C 25,0 C 72 % 1017,3 hPa 0,0 l/m 2 min 0 min 4,6 UV-I 729 W/m 23,0 km/h (4 Bft)
22.07.2014 14:02 25,7 C 25,0 C 74 % 1017,3 hPa 0,0 l/m 2 min 0 min 4,4 UV-I 695 W/m 14,6 km/h (3 Bft)
22.07.2014 14:04 25,6 C 25,0 C 71 % 1017,2 hPa 0,0 l/m 2 min 0 min 3,8 UV-I 596 W/m 29,3 km/h (5 Bft)
22.07.2014 14:06 25,4 C 24,4 C 70 % 1017,3 hPa 0,0 l/m 2 min 0 min 3,7 UV-I 544 W/m 20,9 km/h (4 Bft)
22.07.2014 14:08 25,4 C 24,4 C 71 % 1017,3 hPa 0,0 l/m 2 min 0 min 3,6 UV-I 523 W/m 20,9 km/h (4 Bft)
22.07.2014 14:10 25,3 C 24,4 C 73 % 1017,3 hPa 0,0 l/m 2 min 0 min 3,7 UV-I 580 W/m 23,0 km/h (4 Bft)
22.07.2014 14:12 25,4 C 24,4 C 73 % 1017,3 hPa 0,0 l/m 2 min 0 min 3,8 UV-I 590 W/m 25,1 km/h (4 Bft)
22.07.2014 14:14 25,5 C 25,0 C 72 % 1017,2 hPa 0,0 l/m 2 min 0 min 3,9 UV-I 594 W/m 25,1 km/h (4 Bft)
22.07.2014 14:16 25,6 C 25,0 C 73 % 1017,2 hPa 0,0 l/m 2 min 0 min 3,8 UV-I 569 W/m 18,8 km/h (3 Bft)
22.07.2014 14:18 25,8 C 25,0 C 74 % 1017,2 hPa 0,0 l/m 2 min 0 min 3,6 UV-I 563 W/m 16,7 km/h (3 Bft)
22.07.2014 14:20 25,9 C 25,6 C 73 % 1017,2 hPa 0,0 l/m 2 min 0 min 3,4 UV-I 508 W/m 18,8 km/h (3 Bft)
22.07.2014 14:22 25,8 C 25,0 C 71 % 1017,2 hPa 0,0 l/m 2 min 0 min 3,0 UV-I 471 W/m 25,1 km/h (4 Bft)
22.07.2014 14:24 25,5 C 24,4 C 72 % 1017,2 hPa 0,0 l/m 0 min 0 min 3,1 UV-I 397 W/m 27,2 km/h (4 Bft)
22.07.2014 14:26 25,4 C 24,4 C 73 % 1017,3 hPa 0,0 l/m 2 min 0 min 3,5 UV-I 515 W/m 18,8 km/h (3 Bft)
22.07.2014 14:28 25,6 C 25,0 C 74 % 1017,2 hPa 0,0 l/m 2 min 0 min 3,5 UV-I 566 W/m 14,6 km/h (3 Bft)
22.07.2014 14:30 25,7 C 25,0 C 72 % 1017,2 hPa 0,0 l/m 2 min 0 min 3,4 UV-I 554 W/m 20,9 km/h (4 Bft)
22.07.2014 14:32 25,7 C 25,0 C 73 % 1017,2 hPa 0,0 l/m 2 min 0 min 3,5 UV-I 592 W/m 20,9 km/h (4 Bft)
22.07.2014 14:34 25,6 C 25,0 C 73 % 1017,2 hPa 0,0 l/m 2 min 0 min 3,5 UV-I 600 W/m 20,9 km/h (4 Bft)
22.07.2014 14:36 25,7 C 25,0 C 74 % 1017,2 hPa 0,0 l/m 2 min 0 min 3,7 UV-I 565 W/m 18,8 km/h (3 Bft)
22.07.2014 14:38 25,7 C 25,0 C 73 % 1017,2 hPa 0,0 l/m 2 min 0 min 3,6 UV-I 568 W/m 16,7 km/h (3 Bft)
22.07.2014 14:40 25,7 C 25,0 C 73 % 1017,2 hPa 0,0 l/m 2 min 0 min 3,8 UV-I 639 W/m 18,8 km/h (3 Bft)
22.07.2014 14:42 25,8 C 25,0 C 74 % 1017,3 hPa 0,0 l/m 2 min 0 min 3,5 UV-I 608 W/m 23,0 km/h (4 Bft)
22.07.2014 14:44 25,6 C 25,0 C 72 % 1017,3 hPa 0,0 l/m 2 min 0 min 3,7 UV-I 608 W/m 23,0 km/h (4 Bft)
22.07.2014 14:46 25,5 C 25,0 C 72 % 1017,1 hPa 0,0 l/m 2 min 0 min 3,9 UV-I 655 W/m 20,9 km/h (4 Bft)
22.07.2014 14:48 25,6 C 25,0 C 73 % 1017,2 hPa 0,0 l/m 2 min 0 min 4,0 UV-I 688 W/m 16,7 km/h (3 Bft)
22.07.2014 14:50 25,8 C 25,6 C 72 % 1017,3 hPa 0,0 l/m 2 min 0 min 3,9 UV-I 658 W/m 16,7 km/h (3 Bft)
22.07.2014 14:52 25,7 C 25,0 C 72 % 1017,2 hPa 0,0 l/m 2 min 0 min 3,2 UV-I 583 W/m 25,1 km/h (4 Bft)
22.07.2014 14:54 25,7 C 25,0 C 72 % 1017,3 hPa 0,0 l/m 2 min 0 min 3,6 UV-I 575 W/m 27,2 km/h (4 Bft)
22.07.2014 14:56 25,7 C 25,0 C 72 % 1017,2 hPa 0,0 l/m 2 min 0 min 3,9 UV-I 628 W/m 20,9 km/h (4 Bft)
22.07.2014 14:58 25,7 C 25,0 C 72 % 1017,2 hPa 0,0 l/m 2 min 0 min 3,9 UV-I 733 W/m 20,9 km/h (4 Bft)
22.07.2014 15:00 25,7 C 25,0 C 72 % 1017,1 hPa 0,0 l/m 2 min 0 min 3,6 UV-I 710 W/m 18,8 km/h (3 Bft)
22.07.2014 15:02 25,9 C 25,6 C 74 % 1017,0 hPa 0,0 l/m 2 min 0 min 3,6 UV-I 593 W/m 18,8 km/h (3 Bft)
22.07.2014 15:04 26,1 C 25,6 C 73 % 1017,2 hPa 0,0 l/m 2 min 0 min 3,6 UV-I 588 W/m 29,3 km/h (5 Bft)
22.07.2014 15:06 26,1 C 25,6 C 72 % 1017,1 hPa 0,0 l/m 2 min 0 min 3,8 UV-I 674 W/m 18,8 km/h (3 Bft)
22.07.2014 15:08 26,1 C 25,0 C 72 % 1017,2 hPa 0,0 l/m 2 min 0 min 3,9 UV-I 703 W/m 23,0 km/h (4 Bft)
22.07.2014 15:10 26,1 C 25,6 C 72 % 1017,1 hPa 0,0 l/m 2 min 0 min 3,9 UV-I 709 W/m 23,0 km/h (4 Bft)
22.07.2014 15:12 26,2 C 25,6 C 71 % 1017,1 hPa 0,0 l/m 2 min 0 min 3,8 UV-I 671 W/m 18,8 km/h (3 Bft)
22.07.2014 15:14 26,1 C 25,6 C 71 % 1017,0 hPa 0,0 l/m 2 min 0 min 3,7 UV-I 657 W/m 20,9 km/h (4 Bft)
22.07.2014 15:16 26,4 C 25,6 C 73 % 1017,1 hPa 0,0 l/m 2 min 0 min 3,5 UV-I 611 W/m 18,8 km/h (3 Bft)
22.07.2014 15:18 26,5 C 25,6 C 70 % 1017,2 hPa 0,0 l/m 2 min 0 min 3,2 UV-I 550 W/m 25,1 km/h (4 Bft)
22.07.2014 15:20 26,3 C 25,6 C 70 % 1017,1 hPa 0,0 l/m 2 min 0 min 2,9 UV-I 478 W/m 12,6 km/h (3 Bft)
22.07.2014 15:22 26,2 C 25,6 C 71 % 1017,1 hPa 0,0 l/m 2 min 0 min 2,7 UV-I 426 W/m 23,0 km/h (4 Bft)
22.07.2014 15:24 26,1 C 25,6 C 71 % 1017,1 hPa 0,0 l/m 2 min 0 min 2,5 UV-I 400 W/m 23,0 km/h (4 Bft)
22.07.2014 15:26 26,1 C 25,0 C 71 % 1017,1 hPa 0,0 l/m 2 min 0 min 2,8 UV-I 417 W/m 25,1 km/h (4 Bft)
22.07.2014 15:28 25,9 C 25,0 C 71 % 1017,1 hPa 0,0 l/m 2 min 0 min 2,9 UV-I 500 W/m 25,1 km/h (4 Bft)
22.07.2014 15:30 25,9 C 25,6 C 72 % 1017,1 hPa 0,0 l/m 2 min 0 min 3,1 UV-I 582 W/m 20,9 km/h (4 Bft)
22.07.2014 15:32 26,1 C 25,6 C 72 % 1017,0 hPa 0,0 l/m 2 min 0 min 3,3 UV-I 653 W/m 18,8 km/h (3 Bft)
22.07.2014 15:34 26,2 C 25,6 C 71 % 1017,1 hPa 0,0 l/m 2 min 0 min 3,4 UV-I 647 W/m 25,1 km/h (4 Bft)
22.07.2014 15:36 26,4 C 26,1 C 72 % 1017,0 hPa 0,0 l/m 2 min 0 min 3,2 UV-I 587 W/m 20,9 km/h (4 Bft)
22.07.2014 15:38 26,6 C 26,1 C 71 % 1017,0 hPa 0,0 l/m 2 min 0 min 3,4 UV-I 630 W/m 20,9 km/h (4 Bft)
22.07.2014 15:40 26,7 C 26,1 C 71 % 1017,0 hPa 0,0 l/m 2 min 0 min 3,4 UV-I 634 W/m 23,0 km/h (4 Bft)
22.07.2014 15:42 26,7 C 26,1 C 70 % 1017,0 hPa 0,0 l/m 2 min 0 min 3,2 UV-I 604 W/m 23,0 km/h (4 Bft)
22.07.2014 15:44 26,6 C 26,1 C 70 % 1017,1 hPa 0,0 l/m 2 min 0 min 3,1 UV-I 560 W/m 23,0 km/h (4 Bft)
22.07.2014 15:46 26,6 C 26,1 C 69 % 1017,0 hPa 0,0 l/m 2 min 0 min 3,1 UV-I 572 W/m 20,9 km/h (4 Bft)
22.07.2014 15:48 26,7 C 26,1 C 70 % 1017,0 hPa 0,0 l/m 2 min 0 min 3,1 UV-I 576 W/m 18,8 km/h (3 Bft)
22.07.2014 15:50 26,7 C 26,1 C 70 % 1017,0 hPa 0,0 l/m 2 min 0 min 3,1 UV-I 583 W/m 16,7 km/h (3 Bft)
22.07.2014 15:52 26,6 C 25,6 C 70 % 1017,0 hPa 0,0 l/m 2 min 0 min 3,1 UV-I 582 W/m 23,0 km/h (4 Bft)
22.07.2014 15:54 26,5 C 25,6 C 70 % 1017,0 hPa 0,0 l/m 2 min 0 min 3,1 UV-I 569 W/m 20,9 km/h (4 Bft)
22.07.2014 15:56 26,6 C 26,1 C 71 % 1017,0 hPa 0,0 l/m 2 min 0 min 3,0 UV-I 555 W/m 25,1 km/h (4 Bft)
22.07.2014 15:58 26,6 C 26,1 C 70 % 1016,9 hPa 0,0 l/m 2 min 0 min 2,9 UV-I 580 W/m 20,9 km/h (4 Bft)
22.07.2014 16:00 26,6 C 26,1 C 70 % 1016,9 hPa 0,0 l/m 2 min 0 min 3,0 UV-I 590 W/m 20,9 km/h (4 Bft)
22.07.2014 16:02 26,7 C 26,1 C 70 % 1016,9 hPa 0,0 l/m 2 min 0 min 3,1 UV-I 632 W/m 18,8 km/h (3 Bft)
22.07.2014 16:04 26,8 C 26,1 C 71 % 1016,9 hPa 0,0 l/m 2 min 0 min 3,1 UV-I 659 W/m 25,1 km/h (4 Bft)
22.07.2014 16:06 27,0 C 26,1 C 68 % 1016,9 hPa 0,0 l/m 2 min 0 min 3,1 UV-I 640 W/m 18,8 km/h (3 Bft)
22.07.2014 16:08 27,1 C 26,7 C 70 % 1016,9 hPa 0,0 l/m 2 min 0 min 3,0 UV-I 625 W/m 16,7 km/h (3 Bft)
22.07.2014 16:10 27,3 C 26,7 C 69 % 1016,9 hPa 0,0 l/m 2 min 0 min 3,0 UV-I 628 W/m 14,6 km/h (3 Bft)
22.07.2014 16:12 27,4 C 26,7 C 69 % 1016,9 hPa 0,0 l/m 2 min 0 min 3,0 UV-I 632 W/m 18,8 km/h (3 Bft)
22.07.2014 16:14 27,5 C 26,7 C 69 % 1016,9 hPa 0,0 l/m 2 min 0 min 2,9 UV-I 618 W/m 20,9 km/h (4 Bft)
22.07.2014 16:16 27,5 C 26,7 C 68 % 1016,9 hPa 0,0 l/m 2 min 0 min 2,8 UV-I 590 W/m 16,7 km/h (3 Bft)
22.07.2014 16:18 27,6 C 27,2 C 67 % 1016,9 hPa 0,0 l/m 2 min 0 min 2,8 UV-I 591 W/m 14,6 km/h (3 Bft)
22.07.2014 16:20 27,5 C 27,2 C 68 % 1016,8 hPa 0,0 l/m 2 min 0 min 2,7 UV-I 569 W/m 16,7 km/h (3 Bft)
22.07.2014 16:22 27,5 C 27,2 C 68 % 1016,9 hPa 0,0 l/m 2 min 0 min 2,6 UV-I 556 W/m 25,1 km/h (4 Bft)
22.07.2014 16:24 27,4 C 26,7 C 67 % 1016,9 hPa 0,0 l/m 2 min 0 min 2,6 UV-I 543 W/m 20,9 km/h (4 Bft)
22.07.2014 16:26 27,2 C 27,2 C 67 % 1016,9 hPa 0,0 l/m 2 min 0 min 2,6 UV-I 582 W/m 23,0 km/h (4 Bft)
22.07.2014 16:28 27,2 C 27,8 C 68 % 1016,8 hPa 0,0 l/m 2 min 0 min 2,6 UV-I 596 W/m 25,1 km/h (4 Bft)
22.07.2014 16:30 27,1 C 27,8 C 68 % 1016,9 hPa 0,0 l/m 2 min 0 min 2,6 UV-I 588 W/m 23,0 km/h (4 Bft)
22.07.2014 16:32 27,1 C 28,3 C 68 % 1016,8 hPa 0,0 l/m 2 min 0 min 2,5 UV-I 569 W/m 16,7 km/h (3 Bft)
22.07.2014 16:34 27,0 C 28,3 C 69 % 1016,8 hPa 0,0 l/m 2 min 0 min 2,2 UV-I 505 W/m 16,7 km/h (3 Bft)
22.07.2014 16:36 27,1 C 27,8 C 69 % 1016,7 hPa 0,0 l/m 2 min 0 min 2,2 UV-I 496 W/m 35,6 km/h (5 Bft)
22.07.2014 16:38 27,0 C 27,8 C 69 % 1016,8 hPa 0,0 l/m 2 min 0 min 2,1 UV-I 431 W/m 23,0 km/h (4 Bft)
22.07.2014 16:40 26,8 C 27,8 C 68 % 1016,8 hPa 0,0 l/m 2 min 0 min 2,0 UV-I 422 W/m 29,3 km/h (5 Bft)
22.07.2014 16:42 26,7 C 27,8 C 69 % 1016,8 hPa 0,0 l/m 2 min 0 min 2,0 UV-I 430 W/m 25,1 km/h (4 Bft)
22.07.2014 16:44 26,7 C 27,8 C 69 % 1016,7 hPa 0,0 l/m 2 min 0 min 1,9 UV-I 418 W/m 25,1 km/h (4 Bft)
22.07.2014 16:46 26,7 C 28,3 C 69 % 1016,8 hPa 0,0 l/m 2 min 0 min 2,0 UV-I 502 W/m 20,9 km/h (4 Bft)
22.07.2014 16:48 26,8 C 28,9 C 70 % 1016,7 hPa 0,0 l/m 2 min 0 min 2,1 UV-I 526 W/m 25,1 km/h (4 Bft)
22.07.2014 16:50 26,8 C 28,9 C 68 % 1016,7 hPa 0,0 l/m 2 min 0 min 2,1 UV-I 523 W/m 25,1 km/h (4 Bft)
22.07.2014 16:52 26,8 C 28,9 C 69 % 1016,8 hPa 0,0 l/m 2 min 0 min 2,1 UV-I 533 W/m 23,0 km/h (4 Bft)
22.07.2014 16:54 26,8 C 28,9 C 69 % 1016,8 hPa 0,0 l/m 2 min 0 min 2,1 UV-I 543 W/m 27,2 km/h (4 Bft)
22.07.2014 16:56 26,9 C 28,9 C 69 % 1016,8 hPa 0,0 l/m 2 min 0 min 2,1 UV-I 529 W/m 23,0 km/h (4 Bft)
22.07.2014 16:58 26,9 C 28,9 C 68 % 1016,8 hPa 0,0 l/m 2 min 0 min 2,0 UV-I 514 W/m 25,1 km/h (4 Bft)
22.07.2014 17:00 26,9 C 28,3 C 69 % 1016,7 hPa 0,0 l/m 2 min 0 min 2,0 UV-I 496 W/m 23,0 km/h (4 Bft)
22.07.2014 17:02 26,9 C 27,8 C 68 % 1016,8 hPa 0,0 l/m 2 min 0 min 1,9 UV-I 492 W/m 29,3 km/h (5 Bft)
22.07.2014 17:04 27,1 C 27,2 C 69 % 1016,8 hPa 0,0 l/m 2 min 0 min 1,9 UV-I 496 W/m 23,0 km/h (4 Bft)
22.07.2014 17:06 27,2 C 26,7 C 68 % 1016,8 hPa 0,0 l/m 2 min 0 min 1,8 UV-I 484 W/m 20,9 km/h (4 Bft)
22.07.2014 17:08 27,1 C 26,1 C 67 % 1016,8 hPa 0,0 l/m 2 min 0 min 1,8 UV-I 484 W/m 23,0 km/h (4 Bft)
22.07.2014 17:10 27,1 C 26,1 C 67 % 1016,8 hPa 0,0 l/m 2 min 0 min 1,8 UV-I 494 W/m 18,8 km/h (3 Bft)
22.07.2014 17:12 27,0 C 26,1 C 67 % 1016,8 hPa 0,0 l/m 2 min 0 min 1,8 UV-I 491 W/m 31,4 km/h (5 Bft)
22.07.2014 17:14 27,0 C 26,1 C 67 % 1016,7 hPa 0,0 l/m 2 min 0 min 1,6 UV-I 476 W/m 27,2 km/h (4 Bft)
22.07.2014 17:16 27,0 C 26,1 C 67 % 1016,8 hPa 0,0 l/m 2 min 0 min 1,4 UV-I 466 W/m 23,0 km/h (4 Bft)
22.07.2014 17:18 27,0 C 26,1 C 67 % 1016,8 hPa 0,0 l/m 2 min 0 min 1,3 UV-I 465 W/m 23,0 km/h (4 Bft)
22.07.2014 17:20 27,0 C 25,6 C 67 % 1016,9 hPa 0,0 l/m 2 min 0 min 1,3 UV-I 450 W/m 25,1 km/h (4 Bft)
22.07.2014 17:22 26,9 C 25,6 C 67 % 1016,8 hPa 0,0 l/m 2 min 0 min 1,2 UV-I 448 W/m 20,9 km/h (4 Bft)
22.07.2014 17:24 26,8 C 25,6 C 66 % 1016,8 hPa 0,0 l/m 2 min 0 min 1,2 UV-I 449 W/m 25,1 km/h (4 Bft)
22.07.2014 17:26 26,8 C 25,6 C 67 % 1016,8 hPa 0,0 l/m 2 min 0 min 1,1 UV-I 453 W/m 27,2 km/h (4 Bft)
22.07.2014 17:28 26,8 C 25,6 C 67 % 1016,8 hPa 0,0 l/m 2 min 0 min 1,1 UV-I 437 W/m 29,3 km/h (5 Bft)
22.07.2014 17:30 26,8 C 25,6 C 67 % 1016,8 hPa 0,0 l/m 2 min 0 min 1,1 UV-I 414 W/m 25,1 km/h (4 Bft)
22.07.2014 17:32 26,8 C 25,6 C 67 % 1016,8 hPa 0,0 l/m 2 min 0 min 1,0 UV-I 405 W/m 18,8 km/h (3 Bft)
22.07.2014 17:34 26,9 C 25,6 C 67 % 1016,8 hPa 0,0 l/m 2 min 0 min 1,0 UV-I 382 W/m 27,2 km/h (4 Bft)
22.07.2014 17:36 26,9 C 23,3 C 67 % 1016,8 hPa 0,0 l/m 2 min 0 min 1,0 UV-I 370 W/m 23,0 km/h (4 Bft)
22.07.2014 17:38 26,8 C 21,1 C 67 % 1016,7 hPa 0,0 l/m 2 min 0 min 0,9 UV-I 353 W/m 27,2 km/h (4 Bft)
22.07.2014 17:40 26,7 C 20,0 C 68 % 1016,7 hPa 0,0 l/m 2 min 0 min 0,9 UV-I 308 W/m 23,0 km/h (4 Bft)
22.07.2014 17:42 26,6 C 20,0 C 68 % 1016,8 hPa 0,0 l/m 2 min 0 min 0,8 UV-I 272 W/m 25,1 km/h (4 Bft)
22.07.2014 17:44 26,5 C 20,0 C 68 % 1016,8 hPa 0,0 l/m 2 min 0 min 0,8 UV-I 301 W/m 23,0 km/h (4 Bft)
22.07.2014 17:46 26,4 C 19,4 C 67 % 1016,8 hPa 0,0 l/m 2 min 0 min 0,8 UV-I 318 W/m 29,3 km/h (5 Bft)
22.07.2014 17:48 26,4 C 20,0 C 68 % 1016,8 hPa 0,0 l/m 2 min 0 min 0,8 UV-I 334 W/m 20,9 km/h (4 Bft)
22.07.2014 17:50 26,4 C 19,4 C 68 % 1016,8 hPa 0,0 l/m 2 min 0 min 0,8 UV-I 342 W/m 25,1 km/h (4 Bft)
22.07.2014 17:52 26,4 C 20,0 C 68 % 1016,7 hPa 0,0 l/m 2 min 0 min 0,8 UV-I 354 W/m 23,0 km/h (4 Bft)
22.07.2014 17:54 26,4 C 20,0 C 68 % 1016,8 hPa 0,0 l/m 2 min 0 min 0,7 UV-I 307 W/m 25,1 km/h (4 Bft)
22.07.2014 17:56 26,4 C 19,4 C 68 % 1016,8 hPa 0,0 l/m 2 min 0 min 0,7 UV-I 345 W/m 25,1 km/h (4 Bft)
22.07.2014 17:58 26,4 C 19,4 C 68 % 1016,7 hPa 0,0 l/m 2 min 0 min 0,7 UV-I 320 W/m 27,2 km/h (4 Bft)
22.07.2014 18:00 26,4 C 19,4 C 68 % 1016,7 hPa 0,0 l/m 2 min 0 min 0,7 UV-I 357 W/m 25,1 km/h (4 Bft)
22.07.2014 18:02 26,3 C 20,0 C 68 % 1016,8 hPa 0,0 l/m 2 min 0 min 0,7 UV-I 386 W/m 31,4 km/h (5 Bft)
22.07.2014 18:06 26,4 C 20,0 C 68 % 1016,8 hPa 0,0 l/m 2 min 0 min 0,7 UV-I 399 W/m 20,9 km/h (4 Bft)
22.07.2014 18:08 26,5 C 21,1 C 68 % 1016,8 hPa 0,0 l/m 2 min 0 min 0,7 UV-I 376 W/m 31,4 km/h (5 Bft)
22.07.2014 18:10 26,4 C 22,2 C 68 % 1016,8 hPa 0,0 l/m 2 min 0 min 0,7 UV-I 367 W/m 29,3 km/h (5 Bft)
22.07.2014 18:12 26,4 C 22,8 C 68 % 1016,8 hPa 0,0 l/m 2 min 0 min 0,7 UV-I 365 W/m 31,4 km/h (5 Bft)
22.07.2014 18:14 26,4 C 22,8 C 68 % 1016,8 hPa 0,0 l/m 2 min 0 min 0,7 UV-I 357 W/m 25,1 km/h (4 Bft)
22.07.2014 18:16 26,4 C 22,8 C 68 % 1017,0 hPa 0,0 l/m 2 min 0 min 0,6 UV-I 341 W/m 35,6 km/h (5 Bft)
22.07.2014 18:18 26,3 C 22,8 C 69 % 1016,9 hPa 0,0 l/m 2 min 0 min 0,6 UV-I 329 W/m 18,8 km/h (3 Bft)
22.07.2014 18:20 26,4 C 22,8 C 69 % 1016,9 hPa 0,0 l/m 2 min 0 min 0,6 UV-I 290 W/m 23,0 km/h (4 Bft)
22.07.2014 18:22 26,3 C 22,8 C 68 % 1016,8 hPa 0,0 l/m 2 min 0 min 0,5 UV-I 296 W/m 23,0 km/h (4 Bft)
22.07.2014 18:24 26,3 C 22,8 C 69 % 1017,0 hPa 0,0 l/m 2 min 0 min 0,5 UV-I 315 W/m 27,2 km/h (4 Bft)
22.07.2014 18:26 26,3 C 22,8 C 69 % 1016,9 hPa 0,0 l/m 2 min 0 min 0,5 UV-I 332 W/m 23,0 km/h (4 Bft)
22.07.2014 18:28 26,3 C 22,8 C 68 % 1016,9 hPa 0,0 l/m 2 min 0 min 0,5 UV-I 328 W/m 29,3 km/h (5 Bft)
22.07.2014 18:30 26,3 C 22,8 C 69 % 1016,9 hPa 0,0 l/m 2 min 0 min 0,2 UV-I 326 W/m 23,0 km/h (4 Bft)
22.07.2014 18:32 26,3 C 22,8 C 69 % 1016,9 hPa 0,0 l/m 2 min 0 min 0,0 UV-I 320 W/m 20,9 km/h (4 Bft)
22.07.2014 18:34 26,3 C 22,8 C 68 % 1016,9 hPa 0,0 l/m 2 min 0 min 0,0 UV-I 304 W/m 20,9 km/h (4 Bft)
22.07.2014 18:36 26,3 C 22,8 C 68 % 1016,9 hPa 0,0 l/m 2 min 0 min 0,0 UV-I 299 W/m 23,0 km/h (4 Bft)
22.07.2014 18:38 26,3 C 23,3 C 68 % 1016,9 hPa 0,0 l/m 2 min 0 min 0,0 UV-I 296 W/m 18,8 km/h (3 Bft)
22.07.2014 18:40 26,3 C 23,3 C 68 % 1016,9 hPa 0,0 l/m 2 min 0 min 0,0 UV-I 299 W/m 23,0 km/h (4 Bft)
22.07.2014 18:42 26,3 C 23,3 C 68 % 1017,0 hPa 0,0 l/m 2 min 0 min 0,0 UV-I 290 W/m 20,9 km/h (4 Bft)
22.07.2014 18:44 26,3 C 23,3 C 67 % 1017,0 hPa 0,0 l/m 2 min 0 min 0,0 UV-I 257 W/m 25,1 km/h (4 Bft)
22.07.2014 18:46 26,3 C 23,3 C 66 % 1017,1 hPa 0,0 l/m 2 min 0 min 0,0 UV-I 231 W/m 29,3 km/h (5 Bft)
22.07.2014 18:48 26,2 C 23,3 C 66 % 1017,0 hPa 0,0 l/m 2 min 0 min 0,0 UV-I 263 W/m 29,3 km/h (5 Bft)
22.07.2014 18:50 26,2 C 23,9 C 66 % 1017,0 hPa 0,0 l/m 2 min 0 min 0,0 UV-I 278 W/m 23,0 km/h (4 Bft)
22.07.2014 18:52 26,3 C 23,3 C 66 % 1017,0 hPa 0,0 l/m 2 min 0 min 0,0 UV-I 274 W/m 16,7 km/h (3 Bft)
22.07.2014 18:54 26,3 C 23,9 C 66 % 1017,1 hPa 0,0 l/m 2 min 0 min 0,0 UV-I 262 W/m 27,2 km/h (4 Bft)
22.07.2014 18:56 26,3 C 23,9 C 65 % 1017,1 hPa 0,0 l/m 2 min 0 min 0,0 UV-I 255 W/m 27,2 km/h (4 Bft)
22.07.2014 18:58 26,3 C 23,9 C 65 % 1017,1 hPa 0,0 l/m 2 min 0 min 0,0 UV-I 262 W/m 25,1 km/h (4 Bft)
22.07.2014 19:00 26,3 C 23,9 C 65 % 1017,1 hPa 0,0 l/m 2 min 0 min 0,0 UV-I 241 W/m 20,9 km/h (4 Bft)
22.07.2014 19:02 26,3 C 23,9 C 65 % 1017,1 hPa 0,0 l/m 2 min 0 min 0,0 UV-I 225 W/m 20,9 km/h (4 Bft)
22.07.2014 19:04 26,3 C 24,4 C 65 % 1017,1 hPa 0,0 l/m 2 min 0 min 0,0 UV-I 233 W/m 25,1 km/h (4 Bft)
22.07.2014 19:06 26,3 C 23,9 C 63 % 1017,1 hPa 0,0 l/m 2 min 0 min 0,0 UV-I 235 W/m 31,4 km/h (5 Bft)
22.07.2014 19:08 26,3 C 23,9 C 63 % 1017,1 hPa 0,0 l/m 2 min 0 min 0,0 UV-I 221 W/m 23,0 km/h (4 Bft)
22.07.2014 19:10 26,3 C 23,9 C 63 % 1017,2 hPa 0,0 l/m 2 min 0 min 0,0 UV-I 211 W/m 23,0 km/h (4 Bft)
22.07.2014 19:12 26,3 C 23,9 C 63 % 1017,2 hPa 0,0 l/m 2 min 0 min 0,0 UV-I 199 W/m 16,7 km/h (3 Bft)
22.07.2014 19:14 26,2 C 23,9 C 63 % 1017,2 hPa 0,0 l/m 2 min 0 min 0,0 UV-I 181 W/m 23,0 km/h (4 Bft)
22.07.2014 19:16 26,2 C 23,9 C 63 % 1017,2 hPa 0,0 l/m 2 min 0 min 0,0 UV-I 183 W/m 29,3 km/h (5 Bft)
22.07.2014 19:18 26,2 C 23,9 C 63 % 1017,3 hPa 0,0 l/m 2 min 0 min 0,0 UV-I 179 W/m 27,2 km/h (4 Bft)
22.07.2014 19:20 26,2 C 23,9 C 63 % 1017,2 hPa 0,0 l/m 2 min 0 min 0,0 UV-I 166 W/m 27,2 km/h (4 Bft)
22.07.2014 19:22 26,1 C 23,9 C 64 % 1017,3 hPa 0,0 l/m 2 min 0 min 0,0 UV-I 174 W/m 23,0 km/h (4 Bft)
22.07.2014 19:24 26,1 C 23,9 C 64 % 1017,1 hPa 0,0 l/m 2 min 0 min 0,0 UV-I 191 W/m 23,0 km/h (4 Bft)
22.07.2014 19:26 26,1 C 23,9 C 64 % 1017,1 hPa 0,0 l/m 2 min 0 min 0,0 UV-I 201 W/m 23,0 km/h (4 Bft)
22.07.2014 19:28 26,1 C 23,9 C 64 % 1017,2 hPa 0,0 l/m 2 min 0 min 0,0 UV-I 203 W/m 18,8 km/h (3 Bft)
22.07.2014 19:30 26,1 C 23,9 C 64 % 1017,2 hPa 0,0 l/m 2 min 0 min 0,0 UV-I 187 W/m 27,2 km/h (4 Bft)
22.07.2014 19:32 26,1 C 23,9 C 64 % 1017,2 hPa 0,0 l/m 2 min 0 min 0,0 UV-I 186 W/m 16,7 km/h (3 Bft)
22.07.2014 19:34 26,0 C 23,9 C 64 % 1017,2 hPa 0,0 l/m 2 min 0 min 0,0 UV-I 174 W/m 20,9 km/h (4 Bft)
22.07.2014 19:36 26,0 C 23,9 C 65 % 1017,2 hPa 0,0 l/m 2 min 0 min 0,0 UV-I 158 W/m 20,9 km/h (4 Bft)
22.07.2014 19:38 26,0 C 23,9 C 65 % 1017,2 hPa 0,0 l/m 2 min 0 min 0,0 UV-I 165 W/m 20,9 km/h (4 Bft)
22.07.2014 19:40 25,9 C 23,9 C 65 % 1017,1 hPa 0,0 l/m 2 min 0 min 0,0 UV-I 182 W/m 25,1 km/h (4 Bft)
22.07.2014 19:42 25,9 C 23,9 C 65 % 1017,2 hPa 0,0 l/m 2 min 0 min 0,0 UV-I 179 W/m 16,7 km/h (3 Bft)
22.07.2014 19:44 26,0 C 23,9 C 64 % 1017,2 hPa 0,0 l/m 2 min 0 min 0,0 UV-I 177 W/m 14,6 km/h (3 Bft)
22.07.2014 19:46 26,0 C 23,9 C 65 % 1017,2 hPa 0,0 l/m 2 min 0 min 0,0 UV-I 175 W/m 10,5 km/h (2 Bft)
22.07.2014 19:48 26,0 C 23,9 C 66 % 1017,2 hPa 0,0 l/m 2 min 0 min 0,0 UV-I 165 W/m 8,4 km/h (2 Bft)
22.07.2014 19:50 26,0 C 23,9 C 66 % 1017,2 hPa 0,0 l/m 2 min 0 min 0,0 UV-I 159 W/m 14,6 km/h (3 Bft)
22.07.2014 19:52 26,0 C 23,9 C 66 % 1017,3 hPa 0,0 l/m 2 min 0 min 0,0 UV-I 151 W/m 18,8 km/h (3 Bft)
22.07.2014 19:54 26,0 C 23,9 C 65 % 1017,2 hPa 0,0 l/m 2 min 0 min 0,0 UV-I 149 W/m 20,9 km/h (4 Bft)
22.07.2014 19:56 25,9 C 23,9 C 66 % 1017,2 hPa 0,0 l/m 2 min 0 min 0,0 UV-I 141 W/m 16,7 km/h (3 Bft)
22.07.2014 19:58 25,9 C 23,9 C 66 % 1017,3 hPa 0,0 l/m 2 min 0 min 0,0 UV-I 128 W/m 20,9 km/h (4 Bft)
22.07.2014 20:00 25,8 C 23,9 C 66 % 1017,3 hPa 0,0 l/m 2 min 0 min 0,0 UV-I 119 W/m 16,7 km/h (3 Bft)
22.07.2014 20:02 25,8 C 23,9 C 66 % 1017,2 hPa 0,0 l/m 2 min 0 min 0,0 UV-I 111 W/m 16,7 km/h (3 Bft)
22.07.2014 20:04 25,8 C 23,9 C 66 % 1017,2 hPa 0,0 l/m 2 min 0 min 0,0 UV-I 109 W/m 18,8 km/h (3 Bft)
22.07.2014 20:06 25,8 C 23,9 C 67 % 1017,3 hPa 0,0 l/m 2 min 0 min 0,0 UV-I 115 W/m 20,9 km/h (4 Bft)
22.07.2014 20:08 25,7 C 23,9 C 66 % 1017,2 hPa 0,0 l/m 2 min 0 min 0,0 UV-I 113 W/m 14,6 km/h (3 Bft)
22.07.2014 20:10 25,7 C 23,9 C 66 % 1017,3 hPa 0,0 l/m 2 min 0 min 0,0 UV-I 109 W/m 14,6 km/h (3 Bft)
22.07.2014 20:12 25,7 C 23,9 C 66 % 1017,3 hPa 0,0 l/m 2 min 0 min 0,0 UV-I 106 W/m 16,7 km/h (3 Bft)
22.07.2014 20:14 25,7 C 23,9 C 66 % 1017,3 hPa 0,0 l/m 2 min 0 min 0,0 UV-I 101 W/m 14,6 km/h (3 Bft)
22.07.2014 20:16 25,6 C 23,3 C 66 % 1017,4 hPa 0,0 l/m 2 min 0 min 0,0 UV-I 95 W/m 18,8 km/h (3 Bft)
22.07.2014 20:18 25,6 C 23,3 C 67 % 1017,4 hPa 0,0 l/m 2 min 0 min 0,0 UV-I 86 W/m 10,5 km/h (2 Bft)
22.07.2014 20:20 25,6 C 23,3 C 67 % 1017,4 hPa 0,0 l/m 2 min 0 min 0,0 UV-I 83 W/m 18,8 km/h (3 Bft)
22.07.2014 20:22 25,6 C 23,3 C 67 % 1017,4 hPa 0,0 l/m 2 min 0 min 0,0 UV-I 81 W/m 14,6 km/h (3 Bft)
22.07.2014 20:24 25,5 C 23,3 C 67 % 1017,4 hPa 0,0 l/m 0 min 0 min 0,0 UV-I 75 W/m 18,8 km/h (3 Bft)
22.07.2014 20:26 25,5 C 23,3 C 67 % 1017,4 hPa 0,0 l/m 0 min 0 min 0,0 UV-I 71 W/m 16,7 km/h (3 Bft)
22.07.2014 20:28 25,4 C 23,3 C 67 % 1017,4 hPa 0,0 l/m 0 min 0 min 0,0 UV-I 69 W/m 14,6 km/h (3 Bft)
22.07.2014 20:30 25,4 C 23,3 C 68 % 1017,4 hPa 0,0 l/m 0 min 0 min 0,0 UV-I 65 W/m 10,5 km/h (2 Bft)
22.07.2014 20:32 25,3 C 23,3 C 68 % 1017,4 hPa 0,0 l/m 0 min 0 min 0,0 UV-I 62 W/m 14,6 km/h (3 Bft)
22.07.2014 20:34 25,3 C 23,3 C 68 % 1017,4 hPa 0,0 l/m 0 min 0 min 0,0 UV-I 57 W/m 10,5 km/h (2 Bft)
22.07.2014 20:36 25,3 C 23,3 C 68 % 1017,4 hPa 0,0 l/m 0 min 0 min 0,0 UV-I 54 W/m 6,3 km/h (2 Bft)
22.07.2014 20:38 25,3 C 23,3 C 69 % 1017,4 hPa 0,0 l/m 0 min 0 min 0,0 UV-I 53 W/m 10,5 km/h (2 Bft)
22.07.2014 20:40 25,2 C 23,3 C 68 % 1017,4 hPa 0,0 l/m 0 min 0 min 0,0 UV-I 52 W/m 16,7 km/h (3 Bft)
22.07.2014 20:42 25,2 C 23,3 C 68 % 1017,5 hPa 0,0 l/m 0 min 0 min 0,0 UV-I 50 W/m 18,8 km/h (3 Bft)
22.07.2014 20:44 25,1 C 22,8 C 69 % 1017,6 hPa 0,0 l/m 0 min 0 min 0,0 UV-I 47 W/m 16,7 km/h (3 Bft)
22.07.2014 20:46 25,1 C 22,8 C 69 % 1017,6 hPa 0,0 l/m 0 min 0 min 0,0 UV-I 47 W/m 12,6 km/h (3 Bft)
22.07.2014 20:48 25,1 C 22,8 C 69 % 1017,6 hPa 0,0 l/m 0 min 0 min 0,0 UV-I 45 W/m 10,5 km/h (2 Bft)
22.07.2014 20:50 25,1 C 22,8 C 69 % 1017,6 hPa 0,0 l/m 0 min 0 min 0,0 UV-I 43 W/m 10,5 km/h (2 Bft)
22.07.2014 20:52 25,0 C 22,8 C 69 % 1017,6 hPa 0,0 l/m 0 min 0 min 0,0 UV-I 40 W/m 10,5 km/h (2 Bft)
22.07.2014 20:54 25,0 C 22,8 C 70 % 1017,5 hPa 0,0 l/m 0 min 0 min 0,0 UV-I 37 W/m 8,4 km/h (2 Bft)
22.07.2014 20:56 24,9 C 22,8 C 70 % 1017,6 hPa 0,0 l/m 0 min 0 min 0,0 UV-I 35 W/m 8,4 km/h (2 Bft)
22.07.2014 20:58 24,8 C 22,8 C 70 % 1017,6 hPa 0,0 l/m 0 min 0 min 0,0 UV-I 33 W/m 8,4 km/h (2 Bft)
22.07.2014 21:00 24,8 C 22,8 C 71 % 1017,6 hPa 0,0 l/m 0 min 0 min 0,0 UV-I 31 W/m 6,3 km/h (2 Bft)
22.07.2014 21:02 24,7 C 22,8 C 71 % 1017,7 hPa 0,0 l/m 0 min 0 min 0,0 UV-I 29 W/m 8,4 km/h (2 Bft)
22.07.2014 21:04 24,6 C 22,2 C 72 % 1017,7 hPa 0,0 l/m 0 min 0 min 0,0 UV-I 27 W/m 8,4 km/h (2 Bft)
22.07.2014 21:06 24,5 C 22,2 C 72 % 1017,8 hPa 0,0 l/m 0 min 0 min 0,0 UV-I 25 W/m 10,5 km/h (2 Bft)
22.07.2014 21:08 24,4 C 22,2 C 73 % 1017,7 hPa 0,0 l/m 0 min 0 min 0,0 UV-I 24 W/m 10,5 km/h (2 Bft)
22.07.2014 21:10 24,4 C 22,2 C 73 % 1017,8 hPa 0,0 l/m 2 min 0 min 0,0 UV-I 23 W/m 6,3 km/h (2 Bft)
22.07.2014 21:12 24,3 C 22,2 C 73 % 1017,7 hPa 0,0 l/m 2 min 0 min 0,0 UV-I 21 W/m 0,0 km/h (0 Bft)
22.07.2014 21:14 24,3 C 22,2 C 73 % 1017,7 hPa 0,0 l/m 2 min 0 min 0,0 UV-I 21 W/m 0,0 km/h (0 Bft)
22.07.2014 21:16 24,2 C 22,2 C 74 % 1017,8 hPa 0,0 l/m 2 min 0 min 0,0 UV-I 19 W/m 0,0 km/h (0 Bft)
22.07.2014 21:18 24,2 C 22,2 C 74 % 1017,8 hPa 0,0 l/m 2 min 0 min 0,0 UV-I 18 W/m 0,0 km/h (0 Bft)
22.07.2014 21:20 24,1 C 21,7 C 74 % 1017,9 hPa 0,0 l/m 2 min 0 min 0,0 UV-I 16 W/m 0,0 km/h (0 Bft)
22.07.2014 21:22 24,1 C 21,7 C 74 % 1017,8 hPa 0,0 l/m 2 min 0 min 0,0 UV-I 15 W/m 0,0 km/h (0 Bft)
22.07.2014 21:24 24,0 C 21,7 C 74 % 1017,9 hPa 0,0 l/m 0 min 0 min 0,0 UV-I 13 W/m 8,4 km/h (2 Bft)
22.07.2014 21:26 23,9 C 21,7 C 75 % 1017,8 hPa 0,0 l/m 0 min 0 min 0,0 UV-I 12 W/m 8,4 km/h (2 Bft)
22.07.2014 21:28 23,9 C 21,7 C 75 % 1017,9 hPa 0,0 l/m 0 min 0 min 0,0 UV-I 11 W/m 0,0 km/h (0 Bft)
22.07.2014 21:30 23,8 C 21,7 C 75 % 1017,9 hPa 0,0 l/m 0 min 0 min 0,0 UV-I 9 W/m 0,0 km/h (0 Bft)
22.07.2014 21:32 23,8 C 21,1 C 75 % 1017,9 hPa 0,0 l/m 0 min 0 min 0,0 UV-I 9 W/m 0,0 km/h (0 Bft)
22.07.2014 21:34 23,7 C 21,1 C 76 % 1018,0 hPa 0,0 l/m 0 min 0 min 0,0 UV-I 7 W/m 0,0 km/h (0 Bft)
22.07.2014 21:36 23,6 C 21,1 C 76 % 1018,0 hPa 0,0 l/m 0 min 0 min 0,0 UV-I 7 W/m 0,0 km/h (0 Bft)
22.07.2014 21:38 23,5 C 20,6 C 76 % 1018,0 hPa 0,0 l/m 0 min 0 min 0,0 UV-I 7 W/m 0,0 km/h (0 Bft)
22.07.2014 21:40 23,4 C 20,6 C 76 % 1018,0 hPa 0,0 l/m 0 min 0 min 0,0 UV-I 6 W/m 0,0 km/h (0 Bft)
22.07.2014 21:42 23,3 C 20,6 C 77 % 1018,0 hPa 0,0 l/m 0 min 0 min 0,0 UV-I 5 W/m 0,0 km/h (0 Bft)
22.07.2014 21:44 23,3 C 20,6 C 77 % 1018,0 hPa 0,0 l/m 0 min 0 min 0,0 UV-I 5 W/m 0,0 km/h (0 Bft)
22.07.2014 21:46 23,2 C 20,6 C 77 % 1018,1 hPa 0,0 l/m 0 min 0 min 0,0 UV-I 1 W/m 0,0 km/h (0 Bft)
22.07.2014 21:48 23,1 C 20,6 C 78 % 1018,1 hPa 0,0 l/m 0 min 0 min 0,0 UV-I 0 W/m 0,0 km/h (0 Bft)
22.07.2014 21:50 23,0 C 20,0 C 78 % 1018,1 hPa 0,0 l/m 0 min 0 min 0,0 UV-I 0 W/m 0,0 km/h (0 Bft)
22.07.2014 21:52 22,8 C 20,0 C 79 % 1018,2 hPa 0,0 l/m 0 min 0 min 0,0 UV-I 0 W/m 0,0 km/h (0 Bft)
22.07.2014 21:54 22,7 C 20,0 C 79 % 1018,2 hPa 0,0 l/m 0 min 0 min 0,0 UV-I 0 W/m 0,0 km/h (0 Bft)
22.07.2014 21:56 22,7 C 20,0 C 79 % 1018,2 hPa 0,0 l/m 0 min 0 min 0,0 UV-I 0 W/m 0,0 km/h (0 Bft)
22.07.2014 21:58 22,5 C 20,0 C 80 % 1018,2 hPa 0,0 l/m 0 min 0 min 0,0 UV-I 0 W/m 0,0 km/h (0 Bft)
22.07.2014 22:00 22,4 C 19,4 C 80 % 1018,2 hPa 0,0 l/m 0 min 0 min 0,0 UV-I 0 W/m 0,0 km/h (0 Bft)
22.07.2014 22:02 22,3 C 19,4 C 80 % 1018,3 hPa 0,0 l/m 0 min 0 min 0,0 UV-I 0 W/m 0,0 km/h (0 Bft)
22.07.2014 22:04 22,2 C 19,4 C 81 % 1018,3 hPa 0,0 l/m 0 min 0 min 0,0 UV-I 0 W/m 0,0 km/h (0 Bft)
22.07.2014 22:06 22,1 C 19,4 C 82 % 1018,4 hPa 0,0 l/m 0 min 0 min 0,0 UV-I 0 W/m 0,0 km/h (0 Bft)
22.07.2014 22:08 22,0 C 19,4 C 82 % 1018,4 hPa 0,0 l/m 0 min 0 min 0,0 UV-I 0 W/m 0,0 km/h (0 Bft)
22.07.2014 22:10 21,9 C 19,4 C 83 % 1018,4 hPa 0,0 l/m 0 min 0 min 0,0 UV-I 0 W/m 0,0 km/h (0 Bft)
22.07.2014 22:12 21,8 C 19,4 C 83 % 1018,4 hPa 0,0 l/m 0 min 0 min 0,0 UV-I 0 W/m 0,0 km/h (0 Bft)
22.07.2014 22:14 21,7 C 18,9 C 83 % 1018,4 hPa 0,0 l/m 0 min 0 min 0,0 UV-I 0 W/m 0,0 km/h (0 Bft)
22.07.2014 22:16 21,7 C 18,9 C 84 % 1018,3 hPa 0,0 l/m 0 min 0 min 0,0 UV-I 0 W/m 0,0 km/h (0 Bft)
22.07.2014 22:18 21,6 C 18,9 C 84 % 1018,4 hPa 0,0 l/m 0 min 0 min 0,0 UV-I 0 W/m 0,0 km/h (0 Bft)
22.07.2014 22:20 21,5 C 18,9 C 84 % 1018,4 hPa 0,0 l/m 0 min 0 min 0,0 UV-I 0 W/m 0,0 km/h (0 Bft)
22.07.2014 22:22 21,4 C 18,9 C 84 % 1018,4 hPa 0,0 l/m 0 min 0 min 0,0 UV-I 0 W/m 0,0 km/h (0 Bft)
22.07.2014 22:24 21,3 C 18,9 C 84 % 1018,5 hPa 0,0 l/m 0 min 0 min 0,0 UV-I 0 W/m 0,0 km/h (0 Bft)
22.07.2014 22:26 21,3 C 18,9 C 84 % 1018,5 hPa 0,0 l/m 0 min 0 min 0,0 UV-I 0 W/m 0,0 km/h (0 Bft)
22.07.2014 22:28 21,3 C 18,9 C 84 % 1018,5 hPa 0,0 l/m 0 min 0 min 0,0 UV-I 0 W/m 0,0 km/h (0 Bft)
22.07.2014 22:30 21,3 C 18,9 C 84 % 1018,5 hPa 0,0 l/m 0 min 0 min 0,0 UV-I 0 W/m 0,0 km/h (0 Bft)
22.07.2014 22:32 21,3 C 18,9 C 85 % 1018,5 hPa 0,0 l/m 0 min 0 min 0,0 UV-I 0 W/m 0,0 km/h (0 Bft)
22.07.2014 22:34 21,2 C 18,9 C 85 % 1018,5 hPa 0,0 l/m 0 min 0 min 0,0 UV-I 0 W/m 0,0 km/h (0 Bft)
22.07.2014 22:36 21,2 C 18,3 C 85 % 1018,6 hPa 0,0 l/m 0 min 0 min 0,0 UV-I 0 W/m 0,0 km/h (0 Bft)
22.07.2014 22:38 21,1 C 18,3 C 85 % 1018,5 hPa 0,0 l/m 0 min 0 min 0,0 UV-I 0 W/m 0,0 km/h (0 Bft)
22.07.2014 22:40 21,1 C 18,3 C 85 % 1018,6 hPa 0,0 l/m 0 min 0 min 0,0 UV-I 0 W/m 0,0 km/h (0 Bft)
22.07.2014 22:42 21,1 C 18,3 C 85 % 1018,5 hPa 0,0 l/m 0 min 0 min 0,0 UV-I 0 W/m 0,0 km/h (0 Bft)
22.07.2014 22:44 21,1 C 18,3 C 86 % 1018,5 hPa 0,0 l/m 0 min 0 min 0,0 UV-I 0 W/m 0,0 km/h (0 Bft)
22.07.2014 22:46 21,0 C 18,3 C 86 % 1018,5 hPa 0,0 l/m 0 min 0 min 0,0 UV-I 0 W/m 0,0 km/h (0 Bft)
22.07.2014 22:48 21,0 C 18,3 C 86 % 1018,6 hPa 0,0 l/m 0 min 0 min 0,0 UV-I 0 W/m 0,0 km/h (0 Bft)
22.07.2014 22:50 21,0 C 18,3 C 86 % 1018,6 hPa 0,0 l/m 0 min 0 min 0,0 UV-I 0 W/m 0,0 km/h (0 Bft)
22.07.2014 22:52 21,0 C 18,3 C 86 % 1018,6 hPa 0,0 l/m 0 min 0 min 0,0 UV-I 0 W/m 0,0 km/h (0 Bft)
22.07.2014 22:54 20,9 C 18,3 C 87 % 1018,6 hPa 0,0 l/m 0 min 0 min 0,0 UV-I 0 W/m 0,0 km/h (0 Bft)
22.07.2014 22:56 20,8 C 18,3 C 87 % 1018,6 hPa 0,0 l/m 0 min 0 min 0,0 UV-I 0 W/m 0,0 km/h (0 Bft)
22.07.2014 22:58 20,7 C 18,3 C 87 % 1018,5 hPa 0,0 l/m 0 min 0 min 0,0 UV-I 0 W/m 0,0 km/h (0 Bft)
22.07.2014 23:00 20,7 C 18,3 C 88 % 1018,5 hPa 0,0 l/m 0 min 0 min 0,0 UV-I 0 W/m 0,0 km/h (0 Bft)
22.07.2014 23:02 20,7 C 18,3 C 88 % 1018,6 hPa 0,0 l/m 0 min 0 min 0,0 UV-I 0 W/m 0,0 km/h (0 Bft)
22.07.2014 23:04 20,6 C 18,3 C 88 % 1018,6 hPa 0,0 l/m 0 min 0 min 0,0 UV-I 0 W/m 0,0 km/h (0 Bft)
22.07.2014 23:06 20,6 C 18,3 C 88 % 1018,6 hPa 0,0 l/m 0 min 0 min 0,0 UV-I 0 W/m 0,0 km/h (0 Bft)
22.07.2014 23:08 20,5 C 18,3 C 88 % 1018,6 hPa 0,0 l/m 0 min 0 min 0,0 UV-I 0 W/m 0,0 km/h (0 Bft)
22.07.2014 23:10 20,5 C 18,3 C 88 % 1018,6 hPa 0,0 l/m 0 min 0 min 0,0 UV-I 0 W/m 0,0 km/h (0 Bft)
22.07.2014 23:12 20,4 C 18,3 C 88 % 1018,6 hPa 0,0 l/m 0 min 0 min 0,0 UV-I 0 W/m 0,0 km/h (0 Bft)
22.07.2014 23:14 20,4 C 17,8 C 89 % 1018,7 hPa 0,0 l/m 0 min 0 min 0,0 UV-I 0 W/m 0,0 km/h (0 Bft)
22.07.2014 23:16 20,4 C 17,8 C 89 % 1018,6 hPa 0,0 l/m 0 min 0 min 0,0 UV-I 0 W/m 0,0 km/h (0 Bft)
22.07.2014 23:18 20,4 C 17,8 C 89 % 1018,7 hPa 0,0 l/m 0 min 0 min 0,0 UV-I 0 W/m 0,0 km/h (0 Bft)
22.07.2014 23:20 20,4 C 17,8 C 89 % 1018,7 hPa 0,0 l/m 0 min 0 min 0,0 UV-I 0 W/m 0,0 km/h (0 Bft)
22.07.2014 23:22 20,4 C 17,8 C 89 % 1018,6 hPa 0,0 l/m 0 min 0 min 0,0 UV-I 0 W/m 0,0 km/h (0 Bft)
22.07.2014 23:24 20,3 C 17,8 C 89 % 1018,6 hPa 0,0 l/m 0 min 0 min 0,0 UV-I 0 W/m 0,0 km/h (0 Bft)
22.07.2014 23:26 20,3 C 17,8 C 89 % 1018,6 hPa 0,0 l/m 0 min 0 min 0,0 UV-I 0 W/m 0,0 km/h (0 Bft)
22.07.2014 23:28 20,3 C 17,8 C 89 % 1018,6 hPa 0,0 l/m 0 min 0 min 0,0 UV-I 0 W/m 0,0 km/h (0 Bft)
22.07.2014 23:30 20,2 C 17,8 C 89 % 1018,7 hPa 0,0 l/m 0 min 0 min 0,0 UV-I 0 W/m 0,0 km/h (0 Bft)
22.07.2014 23:32 20,2 C 17,8 C 89 % 1018,7 hPa 0,0 l/m 0 min 0 min 0,0 UV-I 0 W/m 0,0 km/h (0 Bft)
22.07.2014 23:34 20,1 C 17,8 C 89 % 1018,6 hPa 0,0 l/m 0 min 0 min 0,0 UV-I 0 W/m 0,0 km/h (0 Bft)
22.07.2014 23:36 20,1 C 17,8 C 89 % 1018,7 hPa 0,0 l/m 0 min 0 min 0,0 UV-I 0 W/m 0,0 km/h (0 Bft)
22.07.2014 23:38 20,1 C 17,8 C 89 % 1018,7 hPa 0,0 l/m 0 min 0 min 0,0 UV-I 0 W/m 0,0 km/h (0 Bft)
22.07.2014 23:40 20,1 C 17,8 C 90 % 1018,7 hPa 0,0 l/m 0 min 0 min 0,0 UV-I 0 W/m 0,0 km/h (0 Bft)
22.07.2014 23:42 20,1 C 17,8 C 89 % 1018,7 hPa 0,0 l/m 0 min 0 min 0,0 UV-I 0 W/m 0,0 km/h (0 Bft)
22.07.2014 23:44 20,0 C 17,8 C 89 % 1018,6 hPa 0,0 l/m 0 min 0 min 0,0 UV-I 0 W/m 0,0 km/h (0 Bft)
22.07.2014 23:46 20,0 C 17,8 C 89 % 1018,7 hPa 0,0 l/m 0 min 0 min 0,0 UV-I 0 W/m 0,0 km/h (0 Bft)
22.07.2014 23:48 20,0 C 17,8 C 89 % 1018,7 hPa 0,0 l/m 0 min 0 min 0,0 UV-I 0 W/m 0,0 km/h (0 Bft)
22.07.2014 23:50 19,9 C 17,8 C 89 % 1018,7 hPa 0,0 l/m 0 min 0 min 0,0 UV-I 0 W/m 0,0 km/h (0 Bft)
22.07.2014 23:52 19,9 C 17,8 C 89 % 1018,7 hPa 0,0 l/m 0 min 0 min 0,0 UV-I 0 W/m 0,0 km/h (0 Bft)
22.07.2014 23:54 19,9 C 17,8 C 89 % 1018,7 hPa 0,0 l/m 0 min 0 min 0,0 UV-I 0 W/m 0,0 km/h (0 Bft)
22.07.2014 23:56 19,9 C 17,8 C 89 % 1018,7 hPa 0,0 l/m 0 min 0 min 0,0 UV-I 0 W/m 0,0 km/h (0 Bft)
22.07.2014 23:58 19,9 C 17,8 C 89 % 1018,7 hPa 0,0 l/m 0 min 0 min 0,0 UV-I 0 W/m 0,0 km/h (0 Bft)
_ Min-Zeit 00:00 00:00 19:06 00:24 - - - - - 00:46
Minimum _ 18,9 C 17,8 C 63 % 1014,6 hPa - - - - - 0,0 km/h (0 Bft)
_ Max-Zeit 16:18 16:48 01:04 23:14 03:12 08:40 02:58 12:30 13:12 16:36
Maximum _ 27,6 C 28,9 C 100 % 1018,7 hPa 0,2 l/m 2 min 2 min 5,1 UV-I 892 W/m 35,6 km/h
N-NO (5 Bft)
Durchschnitt _ 22,4 C 21,1 C 85 % 1016,5 hPa #0,4 l/m #11:40 h #28 min. 2,8 UV-I 370 W/m 13,9 km/h (3 Bft)
© 2014 W. Hausmann